<?xml version="1.0" encoding="UTF-8" standalone="no" ?>
<gpx xmlns="http://www.topografix.com/GPX/1/1" xmlns:xsi="http://www.w3.org/2001/XMLSchema-instance" xsi:schemaLocation="http://www.topografix.com/GPX/1/1 http://www.topografix.com/GPX/1/1/gpx.xsd" version="1.1" creator="VisuGPX - https://www.visugpx.com">
  <metadata>
    <name>La Chapelle de Surieux</name>
    <desc><![CDATA[La Chapelle de Surieux]]></desc>
  </metadata>
  <trk>
    <name><![CDATA[La Chapelle de Surieux on GPSies.com]]></name>
    <cmt><![CDATA[Gilles, Claude, Aimé, Bruno, Jacques, Thierry, JeanPierre, JeanMichel, Alain, Edouard,]]></cmt>
    <trkseg>
      <trkpt lat="45.12017" lon="4.98556">
        <ele>204</ele>
        <time>2010-02-06T12:32:51Z</time>
      </trkpt>
      <trkpt lat="45.1202" lon="4.98488">
        <ele>205</ele>
        <time>2010-02-06T12:33:10Z</time>
      </trkpt>
      <trkpt lat="45.12038" lon="4.98425">
        <ele>205</ele>
        <time>2010-02-06T12:33:29Z</time>
      </trkpt>
      <trkpt lat="45.12051" lon="4.98414">
        <ele>206</ele>
        <time>2010-02-06T12:33:36Z</time>
      </trkpt>
      <trkpt lat="45.12058" lon="4.98398">
        <ele>206</ele>
        <time>2010-02-06T12:33:41Z</time>
      </trkpt>
      <trkpt lat="45.1223" lon="4.98412">
        <ele>209</ele>
        <time>2010-02-06T12:34:50Z</time>
      </trkpt>
      <trkpt lat="45.12334" lon="4.98409">
        <ele>209</ele>
        <time>2010-02-06T12:35:31Z</time>
      </trkpt>
      <trkpt lat="45.12345" lon="4.98402">
        <ele>209</ele>
        <time>2010-02-06T12:35:36Z</time>
      </trkpt>
      <trkpt lat="45.1236" lon="4.98373">
        <ele>212</ele>
        <time>2010-02-06T12:35:46Z</time>
      </trkpt>
      <trkpt lat="45.12378" lon="4.98357">
        <ele>210</ele>
        <time>2010-02-06T12:35:55Z</time>
      </trkpt>
      <trkpt lat="45.12458" lon="4.98307">
        <ele>210</ele>
        <time>2010-02-06T12:36:30Z</time>
      </trkpt>
      <trkpt lat="45.12516" lon="4.98278">
        <ele>212</ele>
        <time>2010-02-06T12:36:55Z</time>
      </trkpt>
      <trkpt lat="45.1261" lon="4.98247">
        <ele>212</ele>
        <time>2010-02-06T12:37:33Z</time>
      </trkpt>
      <trkpt lat="45.12657" lon="4.98238">
        <ele>216</ele>
        <time>2010-02-06T12:37:52Z</time>
      </trkpt>
      <trkpt lat="45.1271" lon="4.98235">
        <ele>219</ele>
        <time>2010-02-06T12:38:13Z</time>
      </trkpt>
      <trkpt lat="45.12803" lon="4.98245">
        <ele>230</ele>
        <time>2010-02-06T12:38:51Z</time>
      </trkpt>
      <trkpt lat="45.12875" lon="4.98263">
        <ele>230</ele>
        <time>2010-02-06T12:39:20Z</time>
      </trkpt>
      <trkpt lat="45.12916" lon="4.98283">
        <ele>232</ele>
        <time>2010-02-06T12:39:37Z</time>
      </trkpt>
      <trkpt lat="45.12982" lon="4.98298">
        <ele>222</ele>
        <time>2010-02-06T12:40:04Z</time>
      </trkpt>
      <trkpt lat="45.13061" lon="4.98295">
        <ele>222</ele>
        <time>2010-02-06T12:40:36Z</time>
      </trkpt>
      <trkpt lat="45.13125" lon="4.98259">
        <ele>229</ele>
        <time>2010-02-06T12:41:03Z</time>
      </trkpt>
      <trkpt lat="45.13232" lon="4.98209">
        <ele>220</ele>
        <time>2010-02-06T12:41:48Z</time>
      </trkpt>
      <trkpt lat="45.13344" lon="4.98171">
        <ele>233</ele>
        <time>2010-02-06T12:42:35Z</time>
      </trkpt>
      <trkpt lat="45.13461" lon="4.98145">
        <ele>226</ele>
        <time>2010-02-06T12:43:22Z</time>
      </trkpt>
      <trkpt lat="45.13546" lon="4.98117">
        <ele>233</ele>
        <time>2010-02-06T12:43:57Z</time>
      </trkpt>
      <trkpt lat="45.13599" lon="4.9809">
        <ele>233</ele>
        <time>2010-02-06T12:44:19Z</time>
      </trkpt>
      <trkpt lat="45.1365" lon="4.98055">
        <ele>227</ele>
        <time>2010-02-06T12:44:42Z</time>
      </trkpt>
      <trkpt lat="45.13749" lon="4.97998">
        <ele>239</ele>
        <time>2010-02-06T12:45:25Z</time>
      </trkpt>
      <trkpt lat="45.14272" lon="4.97758">
        <ele>249</ele>
        <time>2010-02-06T12:49:05Z</time>
      </trkpt>
      <trkpt lat="45.14347" lon="4.97716">
        <ele>244</ele>
        <time>2010-02-06T12:49:37Z</time>
      </trkpt>
      <trkpt lat="45.14416" lon="4.97664">
        <ele>238</ele>
        <time>2010-02-06T12:50:09Z</time>
      </trkpt>
      <trkpt lat="45.14574" lon="4.97529">
        <ele>242</ele>
        <time>2010-02-06T12:51:22Z</time>
      </trkpt>
      <trkpt lat="45.14661" lon="4.97483">
        <ele>244</ele>
        <time>2010-02-06T12:52:00Z</time>
      </trkpt>
      <trkpt lat="45.14729" lon="4.97462">
        <ele>243</ele>
        <time>2010-02-06T12:52:27Z</time>
      </trkpt>
      <trkpt lat="45.14787" lon="4.97451">
        <ele>263</ele>
        <time>2010-02-06T12:52:51Z</time>
      </trkpt>
      <trkpt lat="45.14938" lon="4.97455">
        <ele>262</ele>
        <time>2010-02-06T12:53:51Z</time>
      </trkpt>
      <trkpt lat="45.1502" lon="4.97447">
        <ele>250</ele>
        <time>2010-02-06T12:54:24Z</time>
      </trkpt>
      <trkpt lat="45.15154" lon="4.97377">
        <ele>245</ele>
        <time>2010-02-06T12:55:21Z</time>
      </trkpt>
      <trkpt lat="45.15414" lon="4.97225">
        <ele>269</ele>
        <time>2010-02-06T12:57:14Z</time>
      </trkpt>
      <trkpt lat="45.15452" lon="4.97213">
        <ele>269</ele>
        <time>2010-02-06T12:57:29Z</time>
      </trkpt>
      <trkpt lat="45.15532" lon="4.97211">
        <ele>275</ele>
        <time>2010-02-06T12:58:02Z</time>
      </trkpt>
      <trkpt lat="45.15552" lon="4.97206">
        <ele>270</ele>
        <time>2010-02-06T12:58:10Z</time>
      </trkpt>
      <trkpt lat="45.15561" lon="4.97195">
        <ele>270</ele>
        <time>2010-02-06T12:58:14Z</time>
      </trkpt>
      <trkpt lat="45.15585" lon="4.97136">
        <ele>270</ele>
        <time>2010-02-06T12:58:34Z</time>
      </trkpt>
      <trkpt lat="45.15642" lon="4.96967">
        <ele>275</ele>
        <time>2010-02-06T12:59:27Z</time>
      </trkpt>
      <trkpt lat="45.15661" lon="4.96929">
        <ele>274</ele>
        <time>2010-02-06T12:59:40Z</time>
      </trkpt>
      <trkpt lat="45.15682" lon="4.96899">
        <ele>274</ele>
        <time>2010-02-06T12:59:52Z</time>
      </trkpt>
      <trkpt lat="45.15821" lon="4.96767">
        <ele>280</ele>
        <time>2010-02-06T13:00:59Z</time>
      </trkpt>
      <trkpt lat="45.15834" lon="4.96758">
        <ele>280</ele>
        <time>2010-02-06T13:01:04Z</time>
      </trkpt>
      <trkpt lat="45.15887" lon="4.96739">
        <ele>285</ele>
        <time>2010-02-06T13:01:26Z</time>
      </trkpt>
      <trkpt lat="45.16037" lon="4.9669">
        <ele>277</ele>
        <time>2010-02-06T13:02:28Z</time>
      </trkpt>
      <trkpt lat="45.1606" lon="4.96697">
        <ele>280</ele>
        <time>2010-02-06T13:02:37Z</time>
      </trkpt>
      <trkpt lat="45.16102" lon="4.96735">
        <ele>291</ele>
        <time>2010-02-06T13:02:57Z</time>
      </trkpt>
      <trkpt lat="45.1612" lon="4.96744">
        <ele>291</ele>
        <time>2010-02-06T13:03:05Z</time>
      </trkpt>
      <trkpt lat="45.1617" lon="4.96741">
        <ele>291</ele>
        <time>2010-02-06T13:03:25Z</time>
      </trkpt>
      <trkpt lat="45.16255" lon="4.96688">
        <ele>290</ele>
        <time>2010-02-06T13:04:02Z</time>
      </trkpt>
      <trkpt lat="45.16275" lon="4.9667">
        <ele>290</ele>
        <time>2010-02-06T13:04:12Z</time>
      </trkpt>
      <trkpt lat="45.16291" lon="4.96647">
        <ele>290</ele>
        <time>2010-02-06T13:04:21Z</time>
      </trkpt>
      <trkpt lat="45.16298" lon="4.96533">
        <ele>299</ele>
        <time>2010-02-06T13:04:53Z</time>
      </trkpt>
      <trkpt lat="45.16307" lon="4.96507">
        <ele>299</ele>
        <time>2010-02-06T13:05:01Z</time>
      </trkpt>
      <trkpt lat="45.16317" lon="4.96493">
        <ele>299</ele>
        <time>2010-02-06T13:05:07Z</time>
      </trkpt>
      <trkpt lat="45.16339" lon="4.96485">
        <ele>299</ele>
        <time>2010-02-06T13:05:16Z</time>
      </trkpt>
      <trkpt lat="45.16416" lon="4.96503">
        <ele>308</ele>
        <time>2010-02-06T13:05:47Z</time>
      </trkpt>
      <trkpt lat="45.16467" lon="4.965">
        <ele>311</ele>
        <time>2010-02-06T13:06:08Z</time>
      </trkpt>
      <trkpt lat="45.16507" lon="4.96501">
        <ele>311</ele>
        <time>2010-02-06T13:06:24Z</time>
      </trkpt>
      <trkpt lat="45.16532" lon="4.96519">
        <ele>311</ele>
        <time>2010-02-06T13:06:35Z</time>
      </trkpt>
      <trkpt lat="45.16578" lon="4.96646">
        <ele>315</ele>
        <time>2010-02-06T13:07:15Z</time>
      </trkpt>
      <trkpt lat="45.16601" lon="4.96698">
        <ele>315</ele>
        <time>2010-02-06T13:07:32Z</time>
      </trkpt>
      <trkpt lat="45.16608" lon="4.96705">
        <ele>315</ele>
        <time>2010-02-06T13:07:36Z</time>
      </trkpt>
      <trkpt lat="45.16627" lon="4.96713">
        <ele>313</ele>
        <time>2010-02-06T13:07:44Z</time>
      </trkpt>
      <trkpt lat="45.16665" lon="4.96713">
        <ele>313</ele>
        <time>2010-02-06T13:07:59Z</time>
      </trkpt>
      <trkpt lat="45.16678" lon="4.9672">
        <ele>313</ele>
        <time>2010-02-06T13:08:05Z</time>
      </trkpt>
      <trkpt lat="45.16785" lon="4.96875">
        <ele>305</ele>
        <time>2010-02-06T13:09:06Z</time>
      </trkpt>
      <trkpt lat="45.16795" lon="4.96883">
        <ele>307</ele>
        <time>2010-02-06T13:09:10Z</time>
      </trkpt>
      <trkpt lat="45.16818" lon="4.96886">
        <ele>307</ele>
        <time>2010-02-06T13:09:20Z</time>
      </trkpt>
      <trkpt lat="45.16847" lon="4.96878">
        <ele>307</ele>
        <time>2010-02-06T13:09:31Z</time>
      </trkpt>
      <trkpt lat="45.16914" lon="4.96837">
        <ele>317</ele>
        <time>2010-02-06T13:10:01Z</time>
      </trkpt>
      <trkpt lat="45.16922" lon="4.96828">
        <ele>317</ele>
        <time>2010-02-06T13:10:05Z</time>
      </trkpt>
      <trkpt lat="45.16926" lon="4.96817">
        <ele>317</ele>
        <time>2010-02-06T13:10:08Z</time>
      </trkpt>
      <trkpt lat="45.16927" lon="4.96782">
        <ele>325</ele>
        <time>2010-02-06T13:10:18Z</time>
      </trkpt>
      <trkpt lat="45.1692" lon="4.96688">
        <ele>333</ele>
        <time>2010-02-06T13:10:45Z</time>
      </trkpt>
      <trkpt lat="45.16926" lon="4.96655">
        <ele>333</ele>
        <time>2010-02-06T13:10:54Z</time>
      </trkpt>
      <trkpt lat="45.16935" lon="4.96637">
        <ele>333</ele>
        <time>2010-02-06T13:11:01Z</time>
      </trkpt>
      <trkpt lat="45.16957" lon="4.96616">
        <ele>339</ele>
        <time>2010-02-06T13:11:11Z</time>
      </trkpt>
      <trkpt lat="45.1698" lon="4.96575">
        <ele>324</ele>
        <time>2010-02-06T13:11:26Z</time>
      </trkpt>
      <trkpt lat="45.1701" lon="4.96451">
        <ele>334</ele>
        <time>2010-02-06T13:12:03Z</time>
      </trkpt>
      <trkpt lat="45.17002" lon="4.96296">
        <ele>332</ele>
        <time>2010-02-06T13:12:47Z</time>
      </trkpt>
      <trkpt lat="45.16984" lon="4.96214">
        <ele>331</ele>
        <time>2010-02-06T13:13:11Z</time>
      </trkpt>
      <trkpt lat="45.1696" lon="4.96169">
        <ele>328</ele>
        <time>2010-02-06T13:13:27Z</time>
      </trkpt>
      <trkpt lat="45.16959" lon="4.96154">
        <ele>328</ele>
        <time>2010-02-06T13:13:31Z</time>
      </trkpt>
      <trkpt lat="45.16966" lon="4.96139">
        <ele>328</ele>
        <time>2010-02-06T13:13:36Z</time>
      </trkpt>
      <trkpt lat="45.17229" lon="4.95993">
        <ele>310</ele>
        <time>2010-02-06T13:15:29Z</time>
      </trkpt>
      <trkpt lat="45.17408" lon="4.9594">
        <ele>301</ele>
        <time>2010-02-06T13:16:43Z</time>
      </trkpt>
      <trkpt lat="45.17424" lon="4.95929">
        <ele>301</ele>
        <time>2010-02-06T13:16:50Z</time>
      </trkpt>
      <trkpt lat="45.17439" lon="4.95909">
        <ele>301</ele>
        <time>2010-02-06T13:16:58Z</time>
      </trkpt>
      <trkpt lat="45.17453" lon="4.9587">
        <ele>302</ele>
        <time>2010-02-06T13:17:10Z</time>
      </trkpt>
      <trkpt lat="45.17471" lon="4.95794">
        <ele>286</ele>
        <time>2010-02-06T13:17:33Z</time>
      </trkpt>
      <trkpt lat="45.17484" lon="4.95768">
        <ele>283</ele>
        <time>2010-02-06T13:17:42Z</time>
      </trkpt>
      <trkpt lat="45.17504" lon="4.95743">
        <ele>283</ele>
        <time>2010-02-06T13:17:53Z</time>
      </trkpt>
      <trkpt lat="45.17721" lon="4.95643">
        <ele>269</ele>
        <time>2010-02-06T13:19:24Z</time>
      </trkpt>
      <trkpt lat="45.17757" lon="4.95634">
        <ele>269</ele>
        <time>2010-02-06T13:19:39Z</time>
      </trkpt>
      <trkpt lat="45.17989" lon="4.95624">
        <ele>259</ele>
        <time>2010-02-06T13:21:11Z</time>
      </trkpt>
      <trkpt lat="45.18195" lon="4.95609">
        <ele>255</ele>
        <time>2010-02-06T13:22:34Z</time>
      </trkpt>
      <trkpt lat="45.18332" lon="4.95591">
        <ele>254</ele>
        <time>2010-02-06T13:23:29Z</time>
      </trkpt>
      <trkpt lat="45.1841" lon="4.95575">
        <ele>252</ele>
        <time>2010-02-06T13:24:01Z</time>
      </trkpt>
      <trkpt lat="45.18548" lon="4.95543">
        <ele>257</ele>
        <time>2010-02-06T13:24:57Z</time>
      </trkpt>
      <trkpt lat="45.1871" lon="4.95493">
        <ele>258</ele>
        <time>2010-02-06T13:26:03Z</time>
      </trkpt>
      <trkpt lat="45.19031" lon="4.95411">
        <ele>257</ele>
        <time>2010-02-06T13:28:14Z</time>
      </trkpt>
      <trkpt lat="45.19277" lon="4.95371">
        <ele>255</ele>
        <time>2010-02-06T13:29:53Z</time>
      </trkpt>
      <trkpt lat="45.19315" lon="4.95357">
        <ele>257</ele>
        <time>2010-02-06T13:30:08Z</time>
      </trkpt>
      <trkpt lat="45.19506" lon="4.9525">
        <ele>261</ele>
        <time>2010-02-06T13:31:31Z</time>
      </trkpt>
      <trkpt lat="45.19623" lon="4.95176">
        <ele>267</ele>
        <time>2010-02-06T13:32:22Z</time>
      </trkpt>
      <trkpt lat="45.19697" lon="4.95152">
        <ele>261</ele>
        <time>2010-02-06T13:32:52Z</time>
      </trkpt>
      <trkpt lat="45.19764" lon="4.9515">
        <ele>256</ele>
        <time>2010-02-06T13:33:19Z</time>
      </trkpt>
      <trkpt lat="45.1985" lon="4.9514">
        <ele>257</ele>
        <time>2010-02-06T13:33:54Z</time>
      </trkpt>
      <trkpt lat="45.19948" lon="4.95143">
        <ele>255</ele>
        <time>2010-02-06T13:34:33Z</time>
      </trkpt>
      <trkpt lat="45.20433" lon="4.95197">
        <ele>247</ele>
        <time>2010-02-06T13:37:48Z</time>
      </trkpt>
      <trkpt lat="45.20671" lon="4.95209">
        <ele>244</ele>
        <time>2010-02-06T13:39:23Z</time>
      </trkpt>
      <trkpt lat="45.20747" lon="4.9522">
        <ele>242</ele>
        <time>2010-02-06T13:39:54Z</time>
      </trkpt>
      <trkpt lat="45.20835" lon="4.95242">
        <ele>242</ele>
        <time>2010-02-06T13:40:29Z</time>
      </trkpt>
      <trkpt lat="45.20912" lon="4.95247">
        <ele>236</ele>
        <time>2010-02-06T13:41:00Z</time>
      </trkpt>
      <trkpt lat="45.21025" lon="4.95244">
        <ele>234</ele>
        <time>2010-02-06T13:41:45Z</time>
      </trkpt>
      <trkpt lat="45.21056" lon="4.95255">
        <ele>242</ele>
        <time>2010-02-06T13:41:58Z</time>
      </trkpt>
      <trkpt lat="45.2107" lon="4.95271">
        <ele>242</ele>
        <time>2010-02-06T13:42:05Z</time>
      </trkpt>
      <trkpt lat="45.21101" lon="4.95398">
        <ele>243</ele>
        <time>2010-02-06T13:42:43Z</time>
      </trkpt>
      <trkpt lat="45.21112" lon="4.95421">
        <ele>243</ele>
        <time>2010-02-06T13:42:51Z</time>
      </trkpt>
      <trkpt lat="45.21122" lon="4.9543">
        <ele>243</ele>
        <time>2010-02-06T13:42:56Z</time>
      </trkpt>
      <trkpt lat="45.21248" lon="4.95421">
        <ele>250</ele>
        <time>2010-02-06T13:43:46Z</time>
      </trkpt>
      <trkpt lat="45.21552" lon="4.95505">
        <ele>250</ele>
        <time>2010-02-06T13:45:50Z</time>
      </trkpt>
      <trkpt lat="45.21652" lon="4.95577">
        <ele>251</ele>
        <time>2010-02-06T13:46:35Z</time>
      </trkpt>
      <trkpt lat="45.22406" lon="4.96168">
        <ele>253</ele>
        <time>2010-02-06T13:52:20Z</time>
      </trkpt>
      <trkpt lat="45.22581" lon="4.96269">
        <ele>254</ele>
        <time>2010-02-06T13:53:36Z</time>
      </trkpt>
      <trkpt lat="45.22621" lon="4.96289">
        <ele>254</ele>
        <time>2010-02-06T13:53:53Z</time>
      </trkpt>
      <trkpt lat="45.22636" lon="4.96292">
        <ele>251</ele>
        <time>2010-02-06T13:53:59Z</time>
      </trkpt>
      <trkpt lat="45.22658" lon="4.96286">
        <ele>248</ele>
        <time>2010-02-06T13:54:08Z</time>
      </trkpt>
      <trkpt lat="45.22673" lon="4.96273">
        <ele>248</ele>
        <time>2010-02-06T13:54:15Z</time>
      </trkpt>
      <trkpt lat="45.22736" lon="4.96182">
        <ele>245</ele>
        <time>2010-02-06T13:54:51Z</time>
      </trkpt>
      <trkpt lat="45.22789" lon="4.96099">
        <ele>244</ele>
        <time>2010-02-06T13:55:22Z</time>
      </trkpt>
      <trkpt lat="45.2282" lon="4.95996">
        <ele>248</ele>
        <time>2010-02-06T13:55:54Z</time>
      </trkpt>
      <trkpt lat="45.22858" lon="4.95924">
        <ele>248</ele>
        <time>2010-02-06T13:56:19Z</time>
      </trkpt>
      <trkpt lat="45.22931" lon="4.95813">
        <ele>248</ele>
        <time>2010-02-06T13:57:02Z</time>
      </trkpt>
      <trkpt lat="45.23029" lon="4.95684">
        <ele>253</ele>
        <time>2010-02-06T13:57:55Z</time>
      </trkpt>
      <trkpt lat="45.23049" lon="4.95693">
        <ele>255</ele>
        <time>2010-02-06T13:58:04Z</time>
      </trkpt>
      <trkpt lat="45.23065" lon="4.95682">
        <ele>255</ele>
        <time>2010-02-06T13:58:11Z</time>
      </trkpt>
      <trkpt lat="45.23071" lon="4.95662">
        <ele>255</ele>
        <time>2010-02-06T13:58:17Z</time>
      </trkpt>
      <trkpt lat="45.23066" lon="4.95646">
        <ele>255</ele>
        <time>2010-02-06T13:58:22Z</time>
      </trkpt>
      <trkpt lat="45.23085" lon="4.95626">
        <ele>255</ele>
        <time>2010-02-06T13:58:32Z</time>
      </trkpt>
      <trkpt lat="45.23176" lon="4.95559">
        <ele>264</ele>
        <time>2010-02-06T13:59:13Z</time>
      </trkpt>
      <trkpt lat="45.23204" lon="4.95546">
        <ele>264</ele>
        <time>2010-02-06T13:59:24Z</time>
      </trkpt>
      <trkpt lat="45.23221" lon="4.95544">
        <ele>275</ele>
        <time>2010-02-06T13:59:31Z</time>
      </trkpt>
      <trkpt lat="45.23253" lon="4.95558">
        <ele>275</ele>
        <time>2010-02-06T13:59:45Z</time>
      </trkpt>
      <trkpt lat="45.23302" lon="4.95611">
        <ele>285</ele>
        <time>2010-02-06T14:00:09Z</time>
      </trkpt>
      <trkpt lat="45.2332" lon="4.9562">
        <ele>285</ele>
        <time>2010-02-06T14:00:17Z</time>
      </trkpt>
      <trkpt lat="45.23338" lon="4.95621">
        <ele>285</ele>
        <time>2010-02-06T14:00:24Z</time>
      </trkpt>
      <trkpt lat="45.23396" lon="4.9561">
        <ele>293</ele>
        <time>2010-02-06T14:00:48Z</time>
      </trkpt>
      <trkpt lat="45.23427" lon="4.95588">
        <ele>293</ele>
        <time>2010-02-06T14:01:01Z</time>
      </trkpt>
      <trkpt lat="45.23438" lon="4.95574">
        <ele>293</ele>
        <time>2010-02-06T14:01:07Z</time>
      </trkpt>
      <trkpt lat="45.23442" lon="4.95564">
        <ele>293</ele>
        <time>2010-02-06T14:01:11Z</time>
      </trkpt>
      <trkpt lat="45.23439" lon="4.95551">
        <ele>293</ele>
        <time>2010-02-06T14:01:14Z</time>
      </trkpt>
      <trkpt lat="45.23394" lon="4.95528">
        <ele>302</ele>
        <time>2010-02-06T14:01:34Z</time>
      </trkpt>
      <trkpt lat="45.23398" lon="4.95511">
        <ele>302</ele>
        <time>2010-02-06T14:01:39Z</time>
      </trkpt>
      <trkpt lat="45.23453" lon="4.95493">
        <ele>302</ele>
        <time>2010-02-06T14:02:01Z</time>
      </trkpt>
      <trkpt lat="45.23503" lon="4.95494">
        <ele>305</ele>
        <time>2010-02-06T14:02:21Z</time>
      </trkpt>
      <trkpt lat="45.23525" lon="4.95501">
        <ele>305</ele>
        <time>2010-02-06T14:02:30Z</time>
      </trkpt>
      <trkpt lat="45.23567" lon="4.95539">
        <ele>316</ele>
        <time>2010-02-06T14:02:50Z</time>
      </trkpt>
      <trkpt lat="45.2365" lon="4.95654">
        <ele>319</ele>
        <time>2010-02-06T14:03:37Z</time>
      </trkpt>
      <trkpt lat="45.23659" lon="4.9566">
        <ele>319</ele>
        <time>2010-02-06T14:03:41Z</time>
      </trkpt>
      <trkpt lat="45.23685" lon="4.95673">
        <ele>319</ele>
        <time>2010-02-06T14:03:52Z</time>
      </trkpt>
      <trkpt lat="45.23741" lon="4.95685">
        <ele>328</ele>
        <time>2010-02-06T14:04:14Z</time>
      </trkpt>
      <trkpt lat="45.23805" lon="4.95711">
        <ele>321</ele>
        <time>2010-02-06T14:04:41Z</time>
      </trkpt>
      <trkpt lat="45.23814" lon="4.95708">
        <ele>332</ele>
        <time>2010-02-06T14:04:45Z</time>
      </trkpt>
      <trkpt lat="45.23821" lon="4.95699">
        <ele>332</ele>
        <time>2010-02-06T14:04:48Z</time>
      </trkpt>
      <trkpt lat="45.23844" lon="4.95626">
        <ele>332</ele>
        <time>2010-02-06T14:05:11Z</time>
      </trkpt>
      <trkpt lat="45.23849" lon="4.95588">
        <ele>339</ele>
        <time>2010-02-06T14:05:22Z</time>
      </trkpt>
      <trkpt lat="45.23844" lon="4.95579">
        <ele>339</ele>
        <time>2010-02-06T14:05:25Z</time>
      </trkpt>
      <trkpt lat="45.23835" lon="4.95576">
        <ele>339</ele>
        <time>2010-02-06T14:05:29Z</time>
      </trkpt>
      <trkpt lat="45.23798" lon="4.95573">
        <ele>339</ele>
        <time>2010-02-06T14:05:44Z</time>
      </trkpt>
      <trkpt lat="45.23784" lon="4.95541">
        <ele>343</ele>
        <time>2010-02-06T14:05:54Z</time>
      </trkpt>
      <trkpt lat="45.23765" lon="4.95317">
        <ele>355</ele>
        <time>2010-02-06T14:06:58Z</time>
      </trkpt>
      <trkpt lat="45.23731" lon="4.95225">
        <ele>365</ele>
        <time>2010-02-06T14:07:27Z</time>
      </trkpt>
      <trkpt lat="45.23692" lon="4.95145">
        <ele>360</ele>
        <time>2010-02-06T14:07:55Z</time>
      </trkpt>
      <trkpt lat="45.23672" lon="4.95086">
        <ele>368</ele>
        <time>2010-02-06T14:08:13Z</time>
      </trkpt>
      <trkpt lat="45.23658" lon="4.94983">
        <ele>374</ele>
        <time>2010-02-06T14:08:43Z</time>
      </trkpt>
      <trkpt lat="45.2366" lon="4.94965">
        <ele>374</ele>
        <time>2010-02-06T14:08:48Z</time>
      </trkpt>
      <trkpt lat="45.23668" lon="4.94952">
        <ele>377</ele>
        <time>2010-02-06T14:08:53Z</time>
      </trkpt>
      <trkpt lat="45.23681" lon="4.94946">
        <ele>377</ele>
        <time>2010-02-06T14:08:58Z</time>
      </trkpt>
      <trkpt lat="45.23694" lon="4.94948">
        <ele>377</ele>
        <time>2010-02-06T14:09:03Z</time>
      </trkpt>
      <trkpt lat="45.23853" lon="4.95024">
        <ele>384</ele>
        <time>2010-02-06T14:10:10Z</time>
      </trkpt>
      <trkpt lat="45.23885" lon="4.95027">
        <ele>384</ele>
        <time>2010-02-06T14:10:23Z</time>
      </trkpt>
      <trkpt lat="45.24121" lon="4.94891">
        <ele>378</ele>
        <time>2010-02-06T14:12:05Z</time>
      </trkpt>
      <trkpt lat="45.24148" lon="4.94886">
        <ele>374</ele>
        <time>2010-02-06T14:12:16Z</time>
      </trkpt>
      <trkpt lat="45.24206" lon="4.94902">
        <ele>374</ele>
        <time>2010-02-06T14:12:40Z</time>
      </trkpt>
      <trkpt lat="45.24237" lon="4.949">
        <ele>367</ele>
        <time>2010-02-06T14:12:52Z</time>
      </trkpt>
      <trkpt lat="45.24476" lon="4.94825">
        <ele>353</ele>
        <time>2010-02-06T14:14:30Z</time>
      </trkpt>
      <trkpt lat="45.24625" lon="4.94774">
        <ele>338</ele>
        <time>2010-02-06T14:15:32Z</time>
      </trkpt>
      <trkpt lat="45.24669" lon="4.94751">
        <ele>338</ele>
        <time>2010-02-06T14:15:50Z</time>
      </trkpt>
      <trkpt lat="45.2475" lon="4.94727">
        <ele>336</ele>
        <time>2010-02-06T14:16:23Z</time>
      </trkpt>
      <trkpt lat="45.24846" lon="4.9471">
        <ele>334</ele>
        <time>2010-02-06T14:17:02Z</time>
      </trkpt>
      <trkpt lat="45.24888" lon="4.94708">
        <ele>326</ele>
        <time>2010-02-06T14:17:19Z</time>
      </trkpt>
      <trkpt lat="45.24919" lon="4.94715">
        <ele>327</ele>
        <time>2010-02-06T14:17:32Z</time>
      </trkpt>
      <trkpt lat="45.24948" lon="4.9474">
        <ele>327</ele>
        <time>2010-02-06T14:17:45Z</time>
      </trkpt>
      <trkpt lat="45.24991" lon="4.94791">
        <ele>320</ele>
        <time>2010-02-06T14:18:08Z</time>
      </trkpt>
      <trkpt lat="45.25271" lon="4.94886">
        <ele>308</ele>
        <time>2010-02-06T14:20:03Z</time>
      </trkpt>
      <trkpt lat="45.25292" lon="4.94897">
        <ele>308</ele>
        <time>2010-02-06T14:20:12Z</time>
      </trkpt>
      <trkpt lat="45.25326" lon="4.94929">
        <ele>308</ele>
        <time>2010-02-06T14:20:28Z</time>
      </trkpt>
      <trkpt lat="45.25377" lon="4.94999">
        <ele>304</ele>
        <time>2010-02-06T14:20:56Z</time>
      </trkpt>
      <trkpt lat="45.2539" lon="4.95021">
        <ele>304</ele>
        <time>2010-02-06T14:21:05Z</time>
      </trkpt>
      <trkpt lat="45.25415" lon="4.95099">
        <ele>301</ele>
        <time>2010-02-06T14:21:29Z</time>
      </trkpt>
      <trkpt lat="45.25439" lon="4.95145">
        <ele>297</ele>
        <time>2010-02-06T14:21:45Z</time>
      </trkpt>
      <trkpt lat="45.25535" lon="4.95174">
        <ele>291</ele>
        <time>2010-02-06T14:22:24Z</time>
      </trkpt>
      <trkpt lat="45.25593" lon="4.95207">
        <ele>287</ele>
        <time>2010-02-06T14:22:49Z</time>
      </trkpt>
      <trkpt lat="45.25702" lon="4.95298">
        <ele>286</ele>
        <time>2010-02-06T14:23:40Z</time>
      </trkpt>
      <trkpt lat="45.25733" lon="4.953">
        <ele>292</ele>
        <time>2010-02-06T14:23:52Z</time>
      </trkpt>
      <trkpt lat="45.25753" lon="4.95291">
        <ele>288</ele>
        <time>2010-02-06T14:24:01Z</time>
      </trkpt>
      <trkpt lat="45.25773" lon="4.95274">
        <ele>288</ele>
        <time>2010-02-06T14:24:10Z</time>
      </trkpt>
      <trkpt lat="45.25811" lon="4.95222">
        <ele>298</ele>
        <time>2010-02-06T14:24:31Z</time>
      </trkpt>
      <trkpt lat="45.25896" lon="4.95079">
        <ele>304</ele>
        <time>2010-02-06T14:25:24Z</time>
      </trkpt>
      <trkpt lat="45.25917" lon="4.95056">
        <ele>304</ele>
        <time>2010-02-06T14:25:34Z</time>
      </trkpt>
      <trkpt lat="45.25945" lon="4.95037">
        <ele>295</ele>
        <time>2010-02-06T14:25:47Z</time>
      </trkpt>
      <trkpt lat="45.25975" lon="4.95034">
        <ele>301</ele>
        <time>2010-02-06T14:25:59Z</time>
      </trkpt>
      <trkpt lat="45.25993" lon="4.95038">
        <ele>301</ele>
        <time>2010-02-06T14:26:06Z</time>
      </trkpt>
      <trkpt lat="45.26054" lon="4.95069">
        <ele>305</ele>
        <time>2010-02-06T14:26:32Z</time>
      </trkpt>
      <trkpt lat="45.26167" lon="4.95138">
        <ele>306</ele>
        <time>2010-02-06T14:27:21Z</time>
      </trkpt>
      <trkpt lat="45.26272" lon="4.95205">
        <ele>300</ele>
        <time>2010-02-06T14:28:07Z</time>
      </trkpt>
      <trkpt lat="45.26398" lon="4.95295">
        <ele>301</ele>
        <time>2010-02-06T14:29:04Z</time>
      </trkpt>
      <trkpt lat="45.26444" lon="4.95321">
        <ele>301</ele>
        <time>2010-02-06T14:29:24Z</time>
      </trkpt>
      <trkpt lat="45.26765" lon="4.95499">
        <ele>288</ele>
        <time>2010-02-06T14:31:42Z</time>
      </trkpt>
      <trkpt lat="45.26995" lon="4.95646">
        <ele>291</ele>
        <time>2010-02-06T14:33:23Z</time>
      </trkpt>
      <trkpt lat="45.27001" lon="4.95663">
        <ele>291</ele>
        <time>2010-02-06T14:33:28Z</time>
      </trkpt>
      <trkpt lat="45.27129" lon="4.95764">
        <ele>294</ele>
        <time>2010-02-06T14:34:26Z</time>
      </trkpt>
      <trkpt lat="45.27163" lon="4.95796">
        <ele>293</ele>
        <time>2010-02-06T14:34:43Z</time>
      </trkpt>
      <trkpt lat="45.27177" lon="4.95798">
        <ele>293</ele>
        <time>2010-02-06T14:34:48Z</time>
      </trkpt>
      <trkpt lat="45.27343" lon="4.95946">
        <ele>294</ele>
        <time>2010-02-06T14:36:07Z</time>
      </trkpt>
      <trkpt lat="45.27445" lon="4.9602">
        <ele>292</ele>
        <time>2010-02-06T14:36:53Z</time>
      </trkpt>
      <trkpt lat="45.27469" lon="4.96022">
        <ele>282</ele>
        <time>2010-02-06T14:37:02Z</time>
      </trkpt>
      <trkpt lat="45.27487" lon="4.96019">
        <ele>282</ele>
        <time>2010-02-06T14:37:10Z</time>
      </trkpt>
      <trkpt lat="45.27683" lon="4.95934">
        <ele>277</ele>
        <time>2010-02-06T14:38:32Z</time>
      </trkpt>
      <trkpt lat="45.2771" lon="4.95918">
        <ele>269</ele>
        <time>2010-02-06T14:38:43Z</time>
      </trkpt>
      <trkpt lat="45.27759" lon="4.95833">
        <ele>273</ele>
        <time>2010-02-06T14:39:14Z</time>
      </trkpt>
      <trkpt lat="45.27786" lon="4.95794">
        <ele>273</ele>
        <time>2010-02-06T14:39:30Z</time>
      </trkpt>
      <trkpt lat="45.27802" lon="4.9578">
        <ele>263</ele>
        <time>2010-02-06T14:39:37Z</time>
      </trkpt>
      <trkpt lat="45.27835" lon="4.95758">
        <ele>263</ele>
        <time>2010-02-06T14:39:52Z</time>
      </trkpt>
      <trkpt lat="45.28001" lon="4.95678">
        <ele>251</ele>
        <time>2010-02-06T14:41:02Z</time>
      </trkpt>
      <trkpt lat="45.28399" lon="4.9558">
        <ele>248</ele>
        <time>2010-02-06T14:43:44Z</time>
      </trkpt>
      <trkpt lat="45.28448" lon="4.95488">
        <ele>247</ele>
        <time>2010-02-06T14:44:16Z</time>
      </trkpt>
      <trkpt lat="45.28477" lon="4.95442">
        <ele>244</ele>
        <time>2010-02-06T14:44:34Z</time>
      </trkpt>
      <trkpt lat="45.285" lon="4.95422">
        <ele>244</ele>
        <time>2010-02-06T14:44:44Z</time>
      </trkpt>
      <trkpt lat="45.28571" lon="4.95391">
        <ele>244</ele>
        <time>2010-02-06T14:45:14Z</time>
      </trkpt>
      <trkpt lat="45.28617" lon="4.95361">
        <ele>241</ele>
        <time>2010-02-06T14:45:34Z</time>
      </trkpt>
      <trkpt lat="45.28628" lon="4.9535">
        <ele>240</ele>
        <time>2010-02-06T14:45:40Z</time>
      </trkpt>
      <trkpt lat="45.28654" lon="4.95302">
        <ele>240</ele>
        <time>2010-02-06T14:45:57Z</time>
      </trkpt>
      <trkpt lat="45.28719" lon="4.95257">
        <ele>229</ele>
        <time>2010-02-06T14:46:26Z</time>
      </trkpt>
      <trkpt lat="45.28771" lon="4.95191">
        <ele>227</ele>
        <time>2010-02-06T14:46:54Z</time>
      </trkpt>
      <trkpt lat="45.28798" lon="4.95173">
        <ele>219</ele>
        <time>2010-02-06T14:47:06Z</time>
      </trkpt>
      <trkpt lat="45.28882" lon="4.95162">
        <ele>217</ele>
        <time>2010-02-06T14:47:39Z</time>
      </trkpt>
      <trkpt lat="45.29099" lon="4.95181">
        <ele>211</ele>
        <time>2010-02-06T14:49:06Z</time>
      </trkpt>
      <trkpt lat="45.29129" lon="4.95143">
        <ele>210</ele>
        <time>2010-02-06T14:49:22Z</time>
      </trkpt>
      <trkpt lat="45.2928" lon="4.94983">
        <ele>210</ele>
        <time>2010-02-06T14:50:38Z</time>
      </trkpt>
      <trkpt lat="45.29472" lon="4.9471">
        <ele>207</ele>
        <time>2010-02-06T14:52:27Z</time>
      </trkpt>
      <trkpt lat="45.2956" lon="4.94566">
        <ele>207</ele>
        <time>2010-02-06T14:53:20Z</time>
      </trkpt>
      <trkpt lat="45.29698" lon="4.94258">
        <ele>204</ele>
        <time>2010-02-06T14:55:03Z</time>
      </trkpt>
      <trkpt lat="45.29801" lon="4.94158">
        <ele>206</ele>
        <time>2010-02-06T14:55:53Z</time>
      </trkpt>
      <trkpt lat="45.29891" lon="4.94081">
        <ele>210</ele>
        <time>2010-02-06T14:56:35Z</time>
      </trkpt>
      <trkpt lat="45.30011" lon="4.93937">
        <ele>205</ele>
        <time>2010-02-06T14:57:38Z</time>
      </trkpt>
      <trkpt lat="45.30103" lon="4.93835">
        <ele>204</ele>
        <time>2010-02-06T14:58:25Z</time>
      </trkpt>
      <trkpt lat="45.30154" lon="4.93769">
        <ele>206</ele>
        <time>2010-02-06T14:58:52Z</time>
      </trkpt>
      <trkpt lat="45.30332" lon="4.93513">
        <ele>205</ele>
        <time>2010-02-06T15:00:34Z</time>
      </trkpt>
      <trkpt lat="45.3038" lon="4.93465">
        <ele>204</ele>
        <time>2010-02-06T15:00:57Z</time>
      </trkpt>
      <trkpt lat="45.30543" lon="4.93261">
        <ele>205</ele>
        <time>2010-02-06T15:02:24Z</time>
      </trkpt>
      <trkpt lat="45.30632" lon="4.93162">
        <ele>205</ele>
        <time>2010-02-06T15:03:09Z</time>
      </trkpt>
      <trkpt lat="45.30664" lon="4.93134">
        <ele>205</ele>
        <time>2010-02-06T15:03:24Z</time>
      </trkpt>
      <trkpt lat="45.30697" lon="4.93118">
        <ele>204</ele>
        <time>2010-02-06T15:03:38Z</time>
      </trkpt>
      <trkpt lat="45.3076" lon="4.93111">
        <ele>203</ele>
        <time>2010-02-06T15:04:04Z</time>
      </trkpt>
      <trkpt lat="45.30861" lon="4.93113">
        <ele>207</ele>
        <time>2010-02-06T15:04:44Z</time>
      </trkpt>
      <trkpt lat="45.30896" lon="4.93102">
        <ele>211</ele>
        <time>2010-02-06T15:04:58Z</time>
      </trkpt>
      <trkpt lat="45.30922" lon="4.93084">
        <ele>211</ele>
        <time>2010-02-06T15:05:10Z</time>
      </trkpt>
      <trkpt lat="45.30988" lon="4.93143">
        <ele>216</ele>
        <time>2010-02-06T15:05:41Z</time>
      </trkpt>
      <trkpt lat="45.31065" lon="4.93232">
        <ele>222</ele>
        <time>2010-02-06T15:06:21Z</time>
      </trkpt>
      <trkpt lat="45.31076" lon="4.93251">
        <ele>222</ele>
        <time>2010-02-06T15:06:28Z</time>
      </trkpt>
      <trkpt lat="45.31084" lon="4.93281">
        <ele>222</ele>
        <time>2010-02-06T15:06:37Z</time>
      </trkpt>
      <trkpt lat="45.31083" lon="4.93332">
        <ele>222</ele>
        <time>2010-02-06T15:06:51Z</time>
      </trkpt>
      <trkpt lat="45.31076" lon="4.93331">
        <ele>222</ele>
        <time>2010-02-06T15:06:54Z</time>
      </trkpt>
      <trkpt lat="45.31074" lon="4.93343">
        <ele>222</ele>
        <time>2010-02-06T15:06:57Z</time>
      </trkpt>
      <trkpt lat="45.31085" lon="4.93345">
        <ele>222</ele>
        <time>2010-02-06T15:07:02Z</time>
      </trkpt>
      <trkpt lat="45.31119" lon="4.93374">
        <ele>222</ele>
        <time>2010-02-06T15:07:18Z</time>
      </trkpt>
      <trkpt lat="45.31192" lon="4.93438">
        <ele>224</ele>
        <time>2010-02-06T15:07:52Z</time>
      </trkpt>
      <trkpt lat="45.31288" lon="4.93502">
        <ele>226</ele>
        <time>2010-02-06T15:08:35Z</time>
      </trkpt>
      <trkpt lat="45.31394" lon="4.93542">
        <ele>226</ele>
        <time>2010-02-06T15:09:18Z</time>
      </trkpt>
      <trkpt lat="45.31638" lon="4.93614">
        <ele>226</ele>
        <time>2010-02-06T15:10:58Z</time>
      </trkpt>
      <trkpt lat="45.31696" lon="4.93636">
        <ele>225</ele>
        <time>2010-02-06T15:11:22Z</time>
      </trkpt>
      <trkpt lat="45.31745" lon="4.93663">
        <ele>225</ele>
        <time>2010-02-06T15:11:43Z</time>
      </trkpt>
      <trkpt lat="45.31788" lon="4.93718">
        <ele>226</ele>
        <time>2010-02-06T15:12:06Z</time>
      </trkpt>
      <trkpt lat="45.31861" lon="4.93886">
        <ele>226</ele>
        <time>2010-02-06T15:13:02Z</time>
      </trkpt>
      <trkpt lat="45.31937" lon="4.94078">
        <ele>227</ele>
        <time>2010-02-06T15:14:04Z</time>
      </trkpt>
      <trkpt lat="45.31955" lon="4.94114">
        <ele>227</ele>
        <time>2010-02-06T15:14:16Z</time>
      </trkpt>
      <trkpt lat="45.31977" lon="4.94153">
        <ele>229</ele>
        <time>2010-02-06T15:14:31Z</time>
      </trkpt>
      <trkpt lat="45.3204" lon="4.94233">
        <ele>229</ele>
        <time>2010-02-06T15:15:04Z</time>
      </trkpt>
      <trkpt lat="45.3219" lon="4.94379">
        <ele>231</ele>
        <time>2010-02-06T15:16:17Z</time>
      </trkpt>
      <trkpt lat="45.32318" lon="4.94516">
        <ele>230</ele>
        <time>2010-02-06T15:17:21Z</time>
      </trkpt>
      <trkpt lat="45.32604" lon="4.94794">
        <ele>229</ele>
        <time>2010-02-06T15:19:40Z</time>
      </trkpt>
      <trkpt lat="45.32622" lon="4.94807">
        <ele>229</ele>
        <time>2010-02-06T15:19:48Z</time>
      </trkpt>
      <trkpt lat="45.32666" lon="4.94818">
        <ele>230</ele>
        <time>2010-02-06T15:20:06Z</time>
      </trkpt>
      <trkpt lat="45.32833" lon="4.94815">
        <ele>224</ele>
        <time>2010-02-06T15:21:13Z</time>
      </trkpt>
      <trkpt lat="45.32974" lon="4.94803">
        <ele>232</ele>
        <time>2010-02-06T15:22:09Z</time>
      </trkpt>
      <trkpt lat="45.33123" lon="4.94803">
        <ele>234</ele>
        <time>2010-02-06T15:23:09Z</time>
      </trkpt>
      <trkpt lat="45.33489" lon="4.94642">
        <ele>232</ele>
        <time>2010-02-06T15:25:42Z</time>
      </trkpt>
      <trkpt lat="45.33581" lon="4.94598">
        <ele>236</ele>
        <time>2010-02-06T15:26:21Z</time>
      </trkpt>
      <trkpt lat="45.33607" lon="4.94602">
        <ele>236</ele>
        <time>2010-02-06T15:26:32Z</time>
      </trkpt>
      <trkpt lat="45.33629" lon="4.94598">
        <ele>230</ele>
        <time>2010-02-06T15:26:40Z</time>
      </trkpt>
      <trkpt lat="45.33694" lon="4.94558">
        <ele>230</ele>
        <time>2010-02-06T15:27:09Z</time>
      </trkpt>
      <trkpt lat="45.3373" lon="4.94536">
        <ele>230</ele>
        <time>2010-02-06T15:27:25Z</time>
      </trkpt>
      <trkpt lat="45.3385" lon="4.94477">
        <ele>231</ele>
        <time>2010-02-06T15:28:15Z</time>
      </trkpt>
      <trkpt lat="45.33965" lon="4.94406">
        <ele>231</ele>
        <time>2010-02-06T15:29:06Z</time>
      </trkpt>
      <trkpt lat="45.34097" lon="4.94336">
        <ele>235</ele>
        <time>2010-02-06T15:30:02Z</time>
      </trkpt>
      <trkpt lat="45.34203" lon="4.94303">
        <ele>236</ele>
        <time>2010-02-06T15:30:45Z</time>
      </trkpt>
      <trkpt lat="45.34228" lon="4.94279">
        <ele>235</ele>
        <time>2010-02-06T15:30:57Z</time>
      </trkpt>
      <trkpt lat="45.34247" lon="4.94271">
        <ele>235</ele>
        <time>2010-02-06T15:31:05Z</time>
      </trkpt>
      <trkpt lat="45.3429" lon="4.94347">
        <ele>237</ele>
        <time>2010-02-06T15:31:33Z</time>
      </trkpt>
      <trkpt lat="45.34311" lon="4.94418">
        <ele>236</ele>
        <time>2010-02-06T15:31:54Z</time>
      </trkpt>
      <trkpt lat="45.34352" lon="4.94479">
        <ele>237</ele>
        <time>2010-02-06T15:32:18Z</time>
      </trkpt>
      <trkpt lat="45.34369" lon="4.94506">
        <ele>237</ele>
        <time>2010-02-06T15:32:28Z</time>
      </trkpt>
      <trkpt lat="45.34376" lon="4.94509">
        <ele>236</ele>
        <time>2010-02-06T15:32:31Z</time>
      </trkpt>
      <trkpt lat="45.34437" lon="4.94503">
        <ele>236</ele>
        <time>2010-02-06T15:32:56Z</time>
      </trkpt>
      <trkpt lat="45.34454" lon="4.9456">
        <ele>235</ele>
        <time>2010-02-06T15:33:13Z</time>
      </trkpt>
      <trkpt lat="45.34493" lon="4.94642">
        <ele>234</ele>
        <time>2010-02-06T15:33:41Z</time>
      </trkpt>
      <trkpt lat="45.34509" lon="4.94668">
        <ele>234</ele>
        <time>2010-02-06T15:33:51Z</time>
      </trkpt>
      <trkpt lat="45.34539" lon="4.94703">
        <ele>234</ele>
        <time>2010-02-06T15:34:06Z</time>
      </trkpt>
      <trkpt lat="45.34553" lon="4.94715">
        <ele>233</ele>
        <time>2010-02-06T15:34:13Z</time>
      </trkpt>
      <trkpt lat="45.34624" lon="4.94753">
        <ele>233</ele>
        <time>2010-02-06T15:34:43Z</time>
      </trkpt>
      <trkpt lat="45.34691" lon="4.9478">
        <ele>234</ele>
        <time>2010-02-06T15:35:11Z</time>
      </trkpt>
      <trkpt lat="45.34694" lon="4.94813">
        <ele>236</ele>
        <time>2010-02-06T15:35:21Z</time>
      </trkpt>
      <trkpt lat="45.34701" lon="4.94838">
        <ele>236</ele>
        <time>2010-02-06T15:35:28Z</time>
      </trkpt>
      <trkpt lat="45.34713" lon="4.94858">
        <ele>235</ele>
        <time>2010-02-06T15:35:35Z</time>
      </trkpt>
      <trkpt lat="45.34761" lon="4.94886">
        <ele>236</ele>
        <time>2010-02-06T15:35:56Z</time>
      </trkpt>
      <trkpt lat="45.34793" lon="4.94918">
        <ele>236</ele>
        <time>2010-02-06T15:36:12Z</time>
      </trkpt>
      <trkpt lat="45.34847" lon="4.9502">
        <ele>237</ele>
        <time>2010-02-06T15:36:48Z</time>
      </trkpt>
      <trkpt lat="45.34939" lon="4.9518">
        <ele>238</ele>
        <time>2010-02-06T15:37:46Z</time>
      </trkpt>
      <trkpt lat="45.34949" lon="4.95183">
        <ele>238</ele>
        <time>2010-02-06T15:37:50Z</time>
      </trkpt>
      <trkpt lat="45.35007" lon="4.95178">
        <ele>238</ele>
        <time>2010-02-06T15:38:13Z</time>
      </trkpt>
      <trkpt lat="45.35297" lon="4.95149">
        <ele>242</ele>
        <time>2010-02-06T15:40:10Z</time>
      </trkpt>
      <trkpt lat="45.35316" lon="4.95155">
        <ele>242</ele>
        <time>2010-02-06T15:40:17Z</time>
      </trkpt>
      <trkpt lat="45.3534" lon="4.95171">
        <ele>242</ele>
        <time>2010-02-06T15:40:28Z</time>
      </trkpt>
      <trkpt lat="45.356" lon="4.95367">
        <ele>248</ele>
        <time>2010-02-06T15:42:26Z</time>
      </trkpt>
      <trkpt lat="45.3562" lon="4.95374">
        <ele>248</ele>
        <time>2010-02-06T15:42:34Z</time>
      </trkpt>
      <trkpt lat="45.35643" lon="4.95363">
        <ele>251</ele>
        <time>2010-02-06T15:42:44Z</time>
      </trkpt>
      <trkpt lat="45.35668" lon="4.95365">
        <ele>251</ele>
        <time>2010-02-06T15:42:54Z</time>
      </trkpt>
      <trkpt lat="45.35748" lon="4.95411">
        <ele>256</ele>
        <time>2010-02-06T15:43:28Z</time>
      </trkpt>
      <trkpt lat="45.35769" lon="4.95416">
        <ele>256</ele>
        <time>2010-02-06T15:43:37Z</time>
      </trkpt>
      <trkpt lat="45.35848" lon="4.95416">
        <ele>264</ele>
        <time>2010-02-06T15:44:09Z</time>
      </trkpt>
      <trkpt lat="45.35944" lon="4.95424">
        <ele>264</ele>
        <time>2010-02-06T15:44:47Z</time>
      </trkpt>
      <trkpt lat="45.35986" lon="4.95434">
        <ele>264</ele>
        <time>2010-02-06T15:45:04Z</time>
      </trkpt>
      <trkpt lat="45.36114" lon="4.9543">
        <ele>266</ele>
        <time>2010-02-06T15:45:55Z</time>
      </trkpt>
      <trkpt lat="45.36351" lon="4.95378">
        <ele>273</ele>
        <time>2010-02-06T15:47:31Z</time>
      </trkpt>
      <trkpt lat="45.36712" lon="4.95344">
        <ele>272</ele>
        <time>2010-02-06T15:49:56Z</time>
      </trkpt>
      <trkpt lat="45.3679" lon="4.95314">
        <ele>272</ele>
        <time>2010-02-06T15:50:29Z</time>
      </trkpt>
      <trkpt lat="45.36847" lon="4.95312">
        <ele>274</ele>
        <time>2010-02-06T15:50:51Z</time>
      </trkpt>
      <trkpt lat="45.36932" lon="4.9529">
        <ele>276</ele>
        <time>2010-02-06T15:51:26Z</time>
      </trkpt>
      <trkpt lat="45.36989" lon="4.95273">
        <ele>278</ele>
        <time>2010-02-06T15:51:49Z</time>
      </trkpt>
      <trkpt lat="45.37021" lon="4.95249">
        <ele>278</ele>
        <time>2010-02-06T15:52:04Z</time>
      </trkpt>
      <trkpt lat="45.37078" lon="4.95185">
        <ele>282</ele>
        <time>2010-02-06T15:52:33Z</time>
      </trkpt>
      <trkpt lat="45.37145" lon="4.95089">
        <ele>287</ele>
        <time>2010-02-06T15:53:11Z</time>
      </trkpt>
      <trkpt lat="45.37156" lon="4.95081">
        <ele>287</ele>
        <time>2010-02-06T15:53:16Z</time>
      </trkpt>
      <trkpt lat="45.37201" lon="4.95071">
        <ele>287</ele>
        <time>2010-02-06T15:53:34Z</time>
      </trkpt>
      <trkpt lat="45.37372" lon="4.95055">
        <ele>300</ele>
        <time>2010-02-06T15:54:43Z</time>
      </trkpt>
      <trkpt lat="45.37352" lon="4.94996">
        <ele>300</ele>
        <time>2010-02-06T15:55:01Z</time>
      </trkpt>
      <trkpt lat="45.37375" lon="4.94989">
        <ele>310</ele>
        <time>2010-02-06T15:55:10Z</time>
      </trkpt>
      <trkpt lat="45.37393" lon="4.94976">
        <ele>310</ele>
        <time>2010-02-06T15:55:19Z</time>
      </trkpt>
      <trkpt lat="45.37411" lon="4.94948">
        <ele>315</ele>
        <time>2010-02-06T15:55:29Z</time>
      </trkpt>
      <trkpt lat="45.37424" lon="4.94866">
        <ele>319</ele>
        <time>2010-02-06T15:55:53Z</time>
      </trkpt>
      <trkpt lat="45.37438" lon="4.94817">
        <ele>319</ele>
        <time>2010-02-06T15:56:08Z</time>
      </trkpt>
      <trkpt lat="45.37458" lon="4.94781">
        <ele>326</ele>
        <time>2010-02-06T15:56:21Z</time>
      </trkpt>
      <trkpt lat="45.37473" lon="4.94703">
        <ele>343</ele>
        <time>2010-02-06T15:56:43Z</time>
      </trkpt>
      <trkpt lat="45.37502" lon="4.94671">
        <ele>343</ele>
        <time>2010-02-06T15:56:58Z</time>
      </trkpt>
      <trkpt lat="45.37474" lon="4.94625">
        <ele>343</ele>
        <time>2010-02-06T15:57:15Z</time>
      </trkpt>
      <trkpt lat="45.3746" lon="4.94592">
        <ele>350</ele>
        <time>2010-02-06T15:57:26Z</time>
      </trkpt>
      <trkpt lat="45.37446" lon="4.94544">
        <ele>339</ele>
        <time>2010-02-06T15:57:41Z</time>
      </trkpt>
      <trkpt lat="45.37442" lon="4.94517">
        <ele>346</ele>
        <time>2010-02-06T15:57:48Z</time>
      </trkpt>
      <trkpt lat="45.37454" lon="4.94499">
        <ele>346</ele>
        <time>2010-02-06T15:57:55Z</time>
      </trkpt>
      <trkpt lat="45.37465" lon="4.94494">
        <ele>358</ele>
        <time>2010-02-06T15:58:00Z</time>
      </trkpt>
      <trkpt lat="45.37483" lon="4.94497">
        <ele>358</ele>
        <time>2010-02-06T15:58:07Z</time>
      </trkpt>
      <trkpt lat="45.37524" lon="4.94549">
        <ele>350</ele>
        <time>2010-02-06T15:58:29Z</time>
      </trkpt>
      <trkpt lat="45.37584" lon="4.94599">
        <ele>362</ele>
        <time>2010-02-06T15:58:57Z</time>
      </trkpt>
      <trkpt lat="45.37613" lon="4.94618">
        <ele>362</ele>
        <time>2010-02-06T15:59:10Z</time>
      </trkpt>
      <trkpt lat="45.37635" lon="4.94622">
        <ele>370</ele>
        <time>2010-02-06T15:59:19Z</time>
      </trkpt>
      <trkpt lat="45.37707" lon="4.94627">
        <ele>366</ele>
        <time>2010-02-06T15:59:48Z</time>
      </trkpt>
      <trkpt lat="45.37763" lon="4.94623">
        <ele>378</ele>
        <time>2010-02-06T16:00:10Z</time>
      </trkpt>
      <trkpt lat="45.37793" lon="4.94629">
        <ele>379</ele>
        <time>2010-02-06T16:00:22Z</time>
      </trkpt>
      <trkpt lat="45.37827" lon="4.94647">
        <ele>379</ele>
        <time>2010-02-06T16:00:37Z</time>
      </trkpt>
      <trkpt lat="45.37953" lon="4.94744">
        <ele>384</ele>
        <time>2010-02-06T16:01:34Z</time>
      </trkpt>
      <trkpt lat="45.38087" lon="4.94834">
        <ele>378</ele>
        <time>2010-02-06T16:02:33Z</time>
      </trkpt>
      <trkpt lat="45.38186" lon="4.94878">
        <ele>375</ele>
        <time>2010-02-06T16:03:15Z</time>
      </trkpt>
      <trkpt lat="45.38247" lon="4.94899">
        <ele>374</ele>
        <time>2010-02-06T16:03:40Z</time>
      </trkpt>
      <trkpt lat="45.38245" lon="4.94863">
        <ele>369</ele>
        <time>2010-02-06T16:03:50Z</time>
      </trkpt>
      <trkpt lat="45.38252" lon="4.94753">
        <ele>365</ele>
        <time>2010-02-06T16:04:21Z</time>
      </trkpt>
      <trkpt lat="45.38255" lon="4.94683">
        <ele>361</ele>
        <time>2010-02-06T16:04:41Z</time>
      </trkpt>
      <trkpt lat="45.38265" lon="4.94617">
        <ele>363</ele>
        <time>2010-02-06T16:05:00Z</time>
      </trkpt>
      <trkpt lat="45.38249" lon="4.94508">
        <ele>368</ele>
        <time>2010-02-06T16:05:31Z</time>
      </trkpt>
      <trkpt lat="45.38248" lon="4.94478">
        <ele>368</ele>
        <time>2010-02-06T16:05:40Z</time>
      </trkpt>
      <trkpt lat="45.38282" lon="4.94315">
        <ele>361</ele>
        <time>2010-02-06T16:06:27Z</time>
      </trkpt>
      <trkpt lat="45.38316" lon="4.94173">
        <ele>364</ele>
        <time>2010-02-06T16:07:10Z</time>
      </trkpt>
      <trkpt lat="45.38348" lon="4.94059">
        <ele>359</ele>
        <time>2010-02-06T16:07:44Z</time>
      </trkpt>
      <trkpt lat="45.38355" lon="4.94046">
        <ele>359</ele>
        <time>2010-02-06T16:07:49Z</time>
      </trkpt>
      <trkpt lat="45.38423" lon="4.93972">
        <ele>359</ele>
        <time>2010-02-06T16:08:23Z</time>
      </trkpt>
      <trkpt lat="45.38473" lon="4.93857">
        <ele>358</ele>
        <time>2010-02-06T16:09:01Z</time>
      </trkpt>
      <trkpt lat="45.38491" lon="4.93843">
        <ele>358</ele>
        <time>2010-02-06T16:09:09Z</time>
      </trkpt>
      <trkpt lat="45.38525" lon="4.93847">
        <ele>358</ele>
        <time>2010-02-06T16:09:23Z</time>
      </trkpt>
      <trkpt lat="45.3854" lon="4.93829">
        <ele>358</ele>
        <time>2010-02-06T16:09:31Z</time>
      </trkpt>
      <trkpt lat="45.38556" lon="4.93777">
        <ele>365</ele>
        <time>2010-02-06T16:09:47Z</time>
      </trkpt>
      <trkpt lat="45.38553" lon="4.93744">
        <ele>365</ele>
        <time>2010-02-06T16:09:56Z</time>
      </trkpt>
      <trkpt lat="45.38542" lon="4.93718">
        <ele>365</ele>
        <time>2010-02-06T16:10:05Z</time>
      </trkpt>
      <trkpt lat="45.38537" lon="4.93693">
        <ele>344</ele>
        <time>2010-02-06T16:10:12Z</time>
      </trkpt>
      <trkpt lat="45.38541" lon="4.93655">
        <ele>344</ele>
        <time>2010-02-06T16:10:23Z</time>
      </trkpt>
      <trkpt lat="45.38564" lon="4.93603">
        <ele>350</ele>
        <time>2010-02-06T16:10:40Z</time>
      </trkpt>
      <trkpt lat="45.38626" lon="4.93486">
        <ele>355</ele>
        <time>2010-02-06T16:11:21Z</time>
      </trkpt>
      <trkpt lat="45.38638" lon="4.93452">
        <ele>346</ele>
        <time>2010-02-06T16:11:32Z</time>
      </trkpt>
      <trkpt lat="45.38675" lon="4.93299">
        <ele>339</ele>
        <time>2010-02-06T16:12:17Z</time>
      </trkpt>
      <trkpt lat="45.38744" lon="4.9311">
        <ele>336</ele>
        <time>2010-02-06T16:13:17Z</time>
      </trkpt>
      <trkpt lat="45.38762" lon="4.93095">
        <ele>336</ele>
        <time>2010-02-06T16:13:26Z</time>
      </trkpt>
      <trkpt lat="45.38801" lon="4.93096">
        <ele>333</ele>
        <time>2010-02-06T16:13:41Z</time>
      </trkpt>
      <trkpt lat="45.38898" lon="4.93128">
        <ele>335</ele>
        <time>2010-02-06T16:14:21Z</time>
      </trkpt>
      <trkpt lat="45.38945" lon="4.9316">
        <ele>335</ele>
        <time>2010-02-06T16:14:42Z</time>
      </trkpt>
      <trkpt lat="45.38961" lon="4.93156">
        <ele>340</ele>
        <time>2010-02-06T16:14:48Z</time>
      </trkpt>
      <trkpt lat="45.38967" lon="4.93145">
        <ele>340</ele>
        <time>2010-02-06T16:14:52Z</time>
      </trkpt>
      <trkpt lat="45.38967" lon="4.93108">
        <ele>341</ele>
        <time>2010-02-06T16:15:03Z</time>
      </trkpt>
      <trkpt lat="45.38911" lon="4.92983">
        <ele>335</ele>
        <time>2010-02-06T16:15:44Z</time>
      </trkpt>
      <trkpt lat="45.38903" lon="4.92925">
        <ele>337</ele>
        <time>2010-02-06T16:16:01Z</time>
      </trkpt>
      <trkpt lat="45.38905" lon="4.92899">
        <ele>337</ele>
        <time>2010-02-06T16:16:08Z</time>
      </trkpt>
      <trkpt lat="45.38925" lon="4.92822">
        <ele>339</ele>
        <time>2010-02-06T16:16:31Z</time>
      </trkpt>
      <trkpt lat="45.3892" lon="4.92786">
        <ele>342</ele>
        <time>2010-02-06T16:16:42Z</time>
      </trkpt>
      <trkpt lat="45.38909" lon="4.92761">
        <ele>342</ele>
        <time>2010-02-06T16:16:50Z</time>
      </trkpt>
      <trkpt lat="45.3889" lon="4.92694">
        <ele>341</ele>
        <time>2010-02-06T16:17:10Z</time>
      </trkpt>
      <trkpt lat="45.38888" lon="4.92671">
        <ele>341</ele>
        <time>2010-02-06T16:17:17Z</time>
      </trkpt>
      <trkpt lat="45.38914" lon="4.9251">
        <ele>342</ele>
        <time>2010-02-06T16:18:03Z</time>
      </trkpt>
      <trkpt lat="45.38915" lon="4.92456">
        <ele>342</ele>
        <time>2010-02-06T16:18:19Z</time>
      </trkpt>
      <trkpt lat="45.38906" lon="4.92409">
        <ele>342</ele>
        <time>2010-02-06T16:18:32Z</time>
      </trkpt>
      <trkpt lat="45.38904" lon="4.92366">
        <ele>340</ele>
        <time>2010-02-06T16:18:44Z</time>
      </trkpt>
      <trkpt lat="45.38915" lon="4.92344">
        <ele>340</ele>
        <time>2010-02-06T16:18:52Z</time>
      </trkpt>
      <trkpt lat="45.38941" lon="4.92314">
        <ele>340</ele>
        <time>2010-02-06T16:19:05Z</time>
      </trkpt>
      <trkpt lat="45.38946" lon="4.92289">
        <ele>337</ele>
        <time>2010-02-06T16:19:13Z</time>
      </trkpt>
      <trkpt lat="45.38944" lon="4.92276">
        <ele>337</ele>
        <time>2010-02-06T16:19:16Z</time>
      </trkpt>
      <trkpt lat="45.38903" lon="4.92185">
        <ele>335</ele>
        <time>2010-02-06T16:19:47Z</time>
      </trkpt>
      <trkpt lat="45.38903" lon="4.92166">
        <ele>335</ele>
        <time>2010-02-06T16:19:52Z</time>
      </trkpt>
      <trkpt lat="45.38909" lon="4.92102">
        <ele>329</ele>
        <time>2010-02-06T16:20:10Z</time>
      </trkpt>
      <trkpt lat="45.38919" lon="4.92052">
        <ele>329</ele>
        <time>2010-02-06T16:20:25Z</time>
      </trkpt>
      <trkpt lat="45.38932" lon="4.91951">
        <ele>326</ele>
        <time>2010-02-06T16:20:54Z</time>
      </trkpt>
      <trkpt lat="45.38983" lon="4.91811">
        <ele>327</ele>
        <time>2010-02-06T16:21:38Z</time>
      </trkpt>
      <trkpt lat="45.39026" lon="4.91716">
        <ele>321</ele>
        <time>2010-02-06T16:22:10Z</time>
      </trkpt>
      <trkpt lat="45.39022" lon="4.91686">
        <ele>312</ele>
        <time>2010-02-06T16:22:18Z</time>
      </trkpt>
      <trkpt lat="45.39018" lon="4.91679">
        <ele>312</ele>
        <time>2010-02-06T16:22:21Z</time>
      </trkpt>
      <trkpt lat="45.39009" lon="4.91677">
        <ele>312</ele>
        <time>2010-02-06T16:22:25Z</time>
      </trkpt>
      <trkpt lat="45.38987" lon="4.91687">
        <ele>312</ele>
        <time>2010-02-06T16:22:34Z</time>
      </trkpt>
      <trkpt lat="45.38938" lon="4.91732">
        <ele>311</ele>
        <time>2010-02-06T16:22:57Z</time>
      </trkpt>
      <trkpt lat="45.38919" lon="4.91743">
        <ele>311</ele>
        <time>2010-02-06T16:23:05Z</time>
      </trkpt>
      <trkpt lat="45.38898" lon="4.91737">
        <ele>311</ele>
        <time>2010-02-06T16:23:14Z</time>
      </trkpt>
      <trkpt lat="45.38895" lon="4.91725">
        <ele>311</ele>
        <time>2010-02-06T16:23:18Z</time>
      </trkpt>
      <trkpt lat="45.38905" lon="4.91687">
        <ele>303</ele>
        <time>2010-02-06T16:23:29Z</time>
      </trkpt>
      <trkpt lat="45.38962" lon="4.91613">
        <ele>303</ele>
        <time>2010-02-06T16:24:00Z</time>
      </trkpt>
      <trkpt lat="45.38981" lon="4.9158">
        <ele>303</ele>
        <time>2010-02-06T16:24:12Z</time>
      </trkpt>
      <trkpt lat="45.38972" lon="4.91457">
        <ele>291</ele>
        <time>2010-02-06T16:24:47Z</time>
      </trkpt>
      <trkpt lat="45.38974" lon="4.91441">
        <ele>291</ele>
        <time>2010-02-06T16:24:51Z</time>
      </trkpt>
      <trkpt lat="45.39002" lon="4.91382">
        <ele>291</ele>
        <time>2010-02-06T16:25:11Z</time>
      </trkpt>
      <trkpt lat="45.39013" lon="4.91336">
        <ele>282</ele>
        <time>2010-02-06T16:25:25Z</time>
      </trkpt>
      <trkpt lat="45.39037" lon="4.91162">
        <ele>277</ele>
        <time>2010-02-06T16:26:15Z</time>
      </trkpt>
      <trkpt lat="45.39058" lon="4.91104">
        <ele>272</ele>
        <time>2010-02-06T16:26:33Z</time>
      </trkpt>
      <trkpt lat="45.39069" lon="4.91054">
        <ele>272</ele>
        <time>2010-02-06T16:26:48Z</time>
      </trkpt>
      <trkpt lat="45.39082" lon="4.90956">
        <ele>272</ele>
        <time>2010-02-06T16:27:16Z</time>
      </trkpt>
      <trkpt lat="45.39094" lon="4.90926">
        <ele>272</ele>
        <time>2010-02-06T16:27:26Z</time>
      </trkpt>
      <trkpt lat="45.39095" lon="4.90913">
        <ele>272</ele>
        <time>2010-02-06T16:27:29Z</time>
      </trkpt>
      <trkpt lat="45.39022" lon="4.90757">
        <ele>269</ele>
        <time>2010-02-06T16:28:22Z</time>
      </trkpt>
      <trkpt lat="45.38993" lon="4.90669">
        <ele>270</ele>
        <time>2010-02-06T16:28:49Z</time>
      </trkpt>
      <trkpt lat="45.3898" lon="4.9053">
        <ele>275</ele>
        <time>2010-02-06T16:29:29Z</time>
      </trkpt>
      <trkpt lat="45.38917" lon="4.90282">
        <ele>271</ele>
        <time>2010-02-06T16:30:43Z</time>
      </trkpt>
      <trkpt lat="45.38833" lon="4.90087">
        <ele>263</ele>
        <time>2010-02-06T16:31:47Z</time>
      </trkpt>
      <trkpt lat="45.38789" lon="4.89963">
        <ele>260</ele>
        <time>2010-02-06T16:32:26Z</time>
      </trkpt>
      <trkpt lat="45.38782" lon="4.89918">
        <ele>258</ele>
        <time>2010-02-06T16:32:39Z</time>
      </trkpt>
      <trkpt lat="45.38782" lon="4.89805">
        <ele>255</ele>
        <time>2010-02-06T16:33:11Z</time>
      </trkpt>
      <trkpt lat="45.38778" lon="4.89745">
        <ele>255</ele>
        <time>2010-02-06T16:33:28Z</time>
      </trkpt>
      <trkpt lat="45.38765" lon="4.89675">
        <ele>255</ele>
        <time>2010-02-06T16:33:48Z</time>
      </trkpt>
      <trkpt lat="45.38742" lon="4.89587">
        <ele>256</ele>
        <time>2010-02-06T16:34:15Z</time>
      </trkpt>
      <trkpt lat="45.38689" lon="4.89459">
        <ele>256</ele>
        <time>2010-02-06T16:34:56Z</time>
      </trkpt>
      <trkpt lat="45.38689" lon="4.89393">
        <ele>254</ele>
        <time>2010-02-06T16:35:15Z</time>
      </trkpt>
      <trkpt lat="45.38696" lon="4.89334">
        <ele>253</ele>
        <time>2010-02-06T16:35:32Z</time>
      </trkpt>
      <trkpt lat="45.38715" lon="4.8923">
        <ele>253</ele>
        <time>2010-02-06T16:36:02Z</time>
      </trkpt>
      <trkpt lat="45.38717" lon="4.89152">
        <ele>253</ele>
        <time>2010-02-06T16:36:24Z</time>
      </trkpt>
      <trkpt lat="45.38739" lon="4.89078">
        <ele>254</ele>
        <time>2010-02-06T16:36:46Z</time>
      </trkpt>
      <trkpt lat="45.38744" lon="4.8903">
        <ele>254</ele>
        <time>2010-02-06T16:37:00Z</time>
      </trkpt>
      <trkpt lat="45.38737" lon="4.88994">
        <ele>254</ele>
        <time>2010-02-06T16:37:11Z</time>
      </trkpt>
      <trkpt lat="45.38716" lon="4.88948">
        <ele>254</ele>
        <time>2010-02-06T16:37:26Z</time>
      </trkpt>
      <trkpt lat="45.38658" lon="4.88865">
        <ele>251</ele>
        <time>2010-02-06T16:37:59Z</time>
      </trkpt>
      <trkpt lat="45.38632" lon="4.8867">
        <ele>252</ele>
        <time>2010-02-06T16:38:55Z</time>
      </trkpt>
      <trkpt lat="45.3861" lon="4.88556">
        <ele>249</ele>
        <time>2010-02-06T16:39:28Z</time>
      </trkpt>
      <trkpt lat="45.38605" lon="4.88502">
        <ele>249</ele>
        <time>2010-02-06T16:39:43Z</time>
      </trkpt>
      <trkpt lat="45.3861" lon="4.88388">
        <ele>248</ele>
        <time>2010-02-06T16:40:15Z</time>
      </trkpt>
      <trkpt lat="45.38609" lon="4.88298">
        <ele>246</ele>
        <time>2010-02-06T16:40:41Z</time>
      </trkpt>
      <trkpt lat="45.38624" lon="4.88094">
        <ele>244</ele>
        <time>2010-02-06T16:41:38Z</time>
      </trkpt>
      <trkpt lat="45.38623" lon="4.88047">
        <ele>244</ele>
        <time>2010-02-06T16:41:52Z</time>
      </trkpt>
      <trkpt lat="45.38602" lon="4.87994">
        <ele>244</ele>
        <time>2010-02-06T16:42:09Z</time>
      </trkpt>
      <trkpt lat="45.38586" lon="4.87752">
        <ele>243</ele>
        <time>2010-02-06T16:43:17Z</time>
      </trkpt>
      <trkpt lat="45.38579" lon="4.87718">
        <ele>243</ele>
        <time>2010-02-06T16:43:27Z</time>
      </trkpt>
      <trkpt lat="45.3854" lon="4.87598">
        <ele>239</ele>
        <time>2010-02-06T16:44:04Z</time>
      </trkpt>
      <trkpt lat="45.38501" lon="4.873">
        <ele>240</ele>
        <time>2010-02-06T16:45:29Z</time>
      </trkpt>
      <trkpt lat="45.385" lon="4.86975">
        <ele>237</ele>
        <time>2010-02-06T16:47:01Z</time>
      </trkpt>
      <trkpt lat="45.38524" lon="4.86724">
        <ele>234</ele>
        <time>2010-02-06T16:48:12Z</time>
      </trkpt>
      <trkpt lat="45.38502" lon="4.86549">
        <ele>239</ele>
        <time>2010-02-06T16:49:02Z</time>
      </trkpt>
      <trkpt lat="45.38505" lon="4.86482">
        <ele>239</ele>
        <time>2010-02-06T16:49:21Z</time>
      </trkpt>
      <trkpt lat="45.38512" lon="4.86449">
        <ele>237</ele>
        <time>2010-02-06T16:49:31Z</time>
      </trkpt>
      <trkpt lat="45.38531" lon="4.86392">
        <ele>237</ele>
        <time>2010-02-06T16:49:48Z</time>
      </trkpt>
      <trkpt lat="45.38558" lon="4.86325">
        <ele>248</ele>
        <time>2010-02-06T16:50:10Z</time>
      </trkpt>
      <trkpt lat="45.38574" lon="4.86306">
        <ele>248</ele>
        <time>2010-02-06T16:50:18Z</time>
      </trkpt>
      <trkpt lat="45.38614" lon="4.86266">
        <ele>247</ele>
        <time>2010-02-06T16:50:38Z</time>
      </trkpt>
      <trkpt lat="45.38625" lon="4.86248">
        <ele>247</ele>
        <time>2010-02-06T16:50:45Z</time>
      </trkpt>
      <trkpt lat="45.38624" lon="4.8623">
        <ele>247</ele>
        <time>2010-02-06T16:50:50Z</time>
      </trkpt>
      <trkpt lat="45.38536" lon="4.8591">
        <ele>237</ele>
        <time>2010-02-06T16:52:26Z</time>
      </trkpt>
      <trkpt lat="45.38534" lon="4.85878">
        <ele>237</ele>
        <time>2010-02-06T16:52:35Z</time>
      </trkpt>
      <trkpt lat="45.38537" lon="4.858">
        <ele>238</ele>
        <time>2010-02-06T16:52:57Z</time>
      </trkpt>
      <trkpt lat="45.38528" lon="4.85668">
        <ele>241</ele>
        <time>2010-02-06T16:53:35Z</time>
      </trkpt>
      <trkpt lat="45.38502" lon="4.85517">
        <ele>242</ele>
        <time>2010-02-06T16:54:18Z</time>
      </trkpt>
      <trkpt lat="45.38429" lon="4.85271">
        <ele>239</ele>
        <time>2010-02-06T16:55:33Z</time>
      </trkpt>
      <trkpt lat="45.38343" lon="4.85113">
        <ele>235</ele>
        <time>2010-02-06T16:56:30Z</time>
      </trkpt>
      <trkpt lat="45.38331" lon="4.85079">
        <ele>235</ele>
        <time>2010-02-06T16:56:40Z</time>
      </trkpt>
      <trkpt lat="45.38315" lon="4.84904">
        <ele>238</ele>
        <time>2010-02-06T16:57:30Z</time>
      </trkpt>
      <trkpt lat="45.38306" lon="4.84748">
        <ele>239</ele>
        <time>2010-02-06T16:58:14Z</time>
      </trkpt>
      <trkpt lat="45.38309" lon="4.84697">
        <ele>241</ele>
        <time>2010-02-06T16:58:28Z</time>
      </trkpt>
      <trkpt lat="45.38326" lon="4.84666">
        <ele>241</ele>
        <time>2010-02-06T16:58:39Z</time>
      </trkpt>
      <trkpt lat="45.38311" lon="4.84647">
        <ele>241</ele>
        <time>2010-02-06T16:58:47Z</time>
      </trkpt>
      <trkpt lat="45.383" lon="4.84616">
        <ele>242</ele>
        <time>2010-02-06T16:58:57Z</time>
      </trkpt>
      <trkpt lat="45.38286" lon="4.8457">
        <ele>240</ele>
        <time>2010-02-06T16:59:11Z</time>
      </trkpt>
      <trkpt lat="45.3827" lon="4.84487">
        <ele>239</ele>
        <time>2010-02-06T16:59:35Z</time>
      </trkpt>
      <trkpt lat="45.38249" lon="4.84278">
        <ele>240</ele>
        <time>2010-02-06T17:00:35Z</time>
      </trkpt>
      <trkpt lat="45.38229" lon="4.84136">
        <ele>239</ele>
        <time>2010-02-06T17:01:16Z</time>
      </trkpt>
      <trkpt lat="45.38176" lon="4.84194">
        <ele>237</ele>
        <time>2010-02-06T17:01:42Z</time>
      </trkpt>
      <trkpt lat="45.38104" lon="4.84286">
        <ele>234</ele>
        <time>2010-02-06T17:02:21Z</time>
      </trkpt>
      <trkpt lat="45.3807" lon="4.84392">
        <ele>237</ele>
        <time>2010-02-06T17:02:54Z</time>
      </trkpt>
      <trkpt lat="45.3804" lon="4.84477">
        <ele>233</ele>
        <time>2010-02-06T17:03:21Z</time>
      </trkpt>
      <trkpt lat="45.38025" lon="4.845">
        <ele>233</ele>
        <time>2010-02-06T17:03:29Z</time>
      </trkpt>
      <trkpt lat="45.37971" lon="4.84565">
        <ele>233</ele>
        <time>2010-02-06T17:03:58Z</time>
      </trkpt>
      <trkpt lat="45.37907" lon="4.84626">
        <ele>228</ele>
        <time>2010-02-06T17:04:29Z</time>
      </trkpt>
      <trkpt lat="45.37862" lon="4.84691">
        <ele>221</ele>
        <time>2010-02-06T17:04:54Z</time>
      </trkpt>
      <trkpt lat="45.37743" lon="4.84967">
        <ele>213</ele>
        <time>2010-02-06T17:06:25Z</time>
      </trkpt>
      <trkpt lat="45.37716" lon="4.85015">
        <ele>213</ele>
        <time>2010-02-06T17:06:43Z</time>
      </trkpt>
      <trkpt lat="45.37703" lon="4.85028">
        <ele>214</ele>
        <time>2010-02-06T17:06:49Z</time>
      </trkpt>
      <trkpt lat="45.37691" lon="4.85034">
        <ele>214</ele>
        <time>2010-02-06T17:06:54Z</time>
      </trkpt>
      <trkpt lat="45.37659" lon="4.85036">
        <ele>214</ele>
        <time>2010-02-06T17:07:07Z</time>
      </trkpt>
      <trkpt lat="45.37525" lon="4.85026">
        <ele>225</ele>
        <time>2010-02-06T17:08:01Z</time>
      </trkpt>
      <trkpt lat="45.37272" lon="4.85081">
        <ele>240</ele>
        <time>2010-02-06T17:09:43Z</time>
      </trkpt>
      <trkpt lat="45.37246" lon="4.85098">
        <ele>240</ele>
        <time>2010-02-06T17:09:54Z</time>
      </trkpt>
      <trkpt lat="45.37219" lon="4.85127">
        <ele>240</ele>
        <time>2010-02-06T17:10:08Z</time>
      </trkpt>
      <trkpt lat="45.369" lon="4.85548">
        <ele>241</ele>
        <time>2010-02-06T17:13:02Z</time>
      </trkpt>
      <trkpt lat="45.36773" lon="4.85704">
        <ele>241</ele>
        <time>2010-02-06T17:14:09Z</time>
      </trkpt>
      <trkpt lat="45.36635" lon="4.85886">
        <ele>261</ele>
        <time>2010-02-06T17:15:25Z</time>
      </trkpt>
      <trkpt lat="45.36622" lon="4.85883">
        <ele>260</ele>
        <time>2010-02-06T17:15:30Z</time>
      </trkpt>
      <trkpt lat="45.36616" lon="4.85888">
        <ele>260</ele>
        <time>2010-02-06T17:15:33Z</time>
      </trkpt>
      <trkpt lat="45.3648" lon="4.85864">
        <ele>254</ele>
        <time>2010-02-06T17:16:27Z</time>
      </trkpt>
      <trkpt lat="45.36299" lon="4.8582">
        <ele>253</ele>
        <time>2010-02-06T17:17:41Z</time>
      </trkpt>
      <trkpt lat="45.35999" lon="4.85738">
        <ele>247</ele>
        <time>2010-02-06T17:19:43Z</time>
      </trkpt>
      <trkpt lat="45.35921" lon="4.85709">
        <ele>247</ele>
        <time>2010-02-06T17:20:16Z</time>
      </trkpt>
      <trkpt lat="45.35557" lon="4.856">
        <ele>248</ele>
        <time>2010-02-06T17:22:44Z</time>
      </trkpt>
      <trkpt lat="45.35493" lon="4.85599">
        <ele>244</ele>
        <time>2010-02-06T17:23:10Z</time>
      </trkpt>
      <trkpt lat="45.35397" lon="4.8561">
        <ele>233</ele>
        <time>2010-02-06T17:23:49Z</time>
      </trkpt>
      <trkpt lat="45.3539" lon="4.85617">
        <ele>233</ele>
        <time>2010-02-06T17:23:52Z</time>
      </trkpt>
      <trkpt lat="45.35385" lon="4.85634">
        <ele>234</ele>
        <time>2010-02-06T17:23:57Z</time>
      </trkpt>
      <trkpt lat="45.3538" lon="4.85681">
        <ele>234</ele>
        <time>2010-02-06T17:24:11Z</time>
      </trkpt>
      <trkpt lat="45.3534" lon="4.85699">
        <ele>230</ele>
        <time>2010-02-06T17:24:27Z</time>
      </trkpt>
      <trkpt lat="45.35314" lon="4.8568">
        <ele>230</ele>
        <time>2010-02-06T17:24:39Z</time>
      </trkpt>
      <trkpt lat="45.35305" lon="4.85663">
        <ele>230</ele>
        <time>2010-02-06T17:24:45Z</time>
      </trkpt>
      <trkpt lat="45.35306" lon="4.85551">
        <ele>228</ele>
        <time>2010-02-06T17:25:17Z</time>
      </trkpt>
      <trkpt lat="45.35254" lon="4.85504">
        <ele>242</ele>
        <time>2010-02-06T17:25:41Z</time>
      </trkpt>
      <trkpt lat="45.35224" lon="4.85399">
        <ele>241</ele>
        <time>2010-02-06T17:26:13Z</time>
      </trkpt>
      <trkpt lat="45.35203" lon="4.85383">
        <ele>245</ele>
        <time>2010-02-06T17:26:23Z</time>
      </trkpt>
      <trkpt lat="45.35147" lon="4.85356">
        <ele>243</ele>
        <time>2010-02-06T17:26:46Z</time>
      </trkpt>
      <trkpt lat="45.34527" lon="4.85089">
        <ele>236</ele>
        <time>2010-02-06T17:31:06Z</time>
      </trkpt>
      <trkpt lat="45.34451" lon="4.85062">
        <ele>239</ele>
        <time>2010-02-06T17:31:37Z</time>
      </trkpt>
      <trkpt lat="45.3395" lon="4.85107">
        <ele>232</ele>
        <time>2010-02-06T17:34:58Z</time>
      </trkpt>
      <trkpt lat="45.339" lon="4.85112">
        <ele>232</ele>
        <time>2010-02-06T17:35:18Z</time>
      </trkpt>
      <trkpt lat="45.3386" lon="4.85291">
        <ele>236</ele>
        <time>2010-02-06T17:36:11Z</time>
      </trkpt>
      <trkpt lat="45.33855" lon="4.85338">
        <ele>236</ele>
        <time>2010-02-06T17:36:24Z</time>
      </trkpt>
      <trkpt lat="45.33867" lon="4.854">
        <ele>234</ele>
        <time>2010-02-06T17:36:42Z</time>
      </trkpt>
      <trkpt lat="45.33921" lon="4.85534">
        <ele>233</ele>
        <time>2010-02-06T17:37:26Z</time>
      </trkpt>
      <trkpt lat="45.33931" lon="4.8557">
        <ele>231</ele>
        <time>2010-02-06T17:37:37Z</time>
      </trkpt>
      <trkpt lat="45.33935" lon="4.85607">
        <ele>231</ele>
        <time>2010-02-06T17:37:47Z</time>
      </trkpt>
      <trkpt lat="45.33926" lon="4.85714">
        <ele>233</ele>
        <time>2010-02-06T17:38:18Z</time>
      </trkpt>
      <trkpt lat="45.33904" lon="4.8582">
        <ele>232</ele>
        <time>2010-02-06T17:38:49Z</time>
      </trkpt>
      <trkpt lat="45.33898" lon="4.85993">
        <ele>234</ele>
        <time>2010-02-06T17:39:37Z</time>
      </trkpt>
      <trkpt lat="45.33593" lon="4.8603">
        <ele>216</ele>
        <time>2010-02-06T17:41:40Z</time>
      </trkpt>
      <trkpt lat="45.33369" lon="4.86064">
        <ele>215</ele>
        <time>2010-02-06T17:43:10Z</time>
      </trkpt>
      <trkpt lat="45.3331" lon="4.86081">
        <ele>215</ele>
        <time>2010-02-06T17:43:34Z</time>
      </trkpt>
      <trkpt lat="45.33108" lon="4.86155">
        <ele>212</ele>
        <time>2010-02-06T17:44:58Z</time>
      </trkpt>
      <trkpt lat="45.32924" lon="4.86206">
        <ele>202</ele>
        <time>2010-02-06T17:46:13Z</time>
      </trkpt>
      <trkpt lat="45.32865" lon="4.86233">
        <ele>210</ele>
        <time>2010-02-06T17:46:38Z</time>
      </trkpt>
      <trkpt lat="45.32852" lon="4.86244">
        <ele>210</ele>
        <time>2010-02-06T17:46:44Z</time>
      </trkpt>
      <trkpt lat="45.32801" lon="4.863">
        <ele>208</ele>
        <time>2010-02-06T17:47:09Z</time>
      </trkpt>
      <trkpt lat="45.32777" lon="4.86335">
        <ele>218</ele>
        <time>2010-02-06T17:47:23Z</time>
      </trkpt>
      <trkpt lat="45.3277" lon="4.86354">
        <ele>218</ele>
        <time>2010-02-06T17:47:29Z</time>
      </trkpt>
      <trkpt lat="45.3277" lon="4.86419">
        <ele>218</ele>
        <time>2010-02-06T17:47:47Z</time>
      </trkpt>
      <trkpt lat="45.32777" lon="4.86476">
        <ele>219</ele>
        <time>2010-02-06T17:48:04Z</time>
      </trkpt>
      <trkpt lat="45.32778" lon="4.86518">
        <ele>219</ele>
        <time>2010-02-06T17:48:16Z</time>
      </trkpt>
      <trkpt lat="45.32771" lon="4.86569">
        <ele>219</ele>
        <time>2010-02-06T17:48:30Z</time>
      </trkpt>
      <trkpt lat="45.32696" lon="4.86796">
        <ele>216</ele>
        <time>2010-02-06T17:49:41Z</time>
      </trkpt>
      <trkpt lat="45.32675" lon="4.86829">
        <ele>216</ele>
        <time>2010-02-06T17:49:53Z</time>
      </trkpt>
      <trkpt lat="45.32646" lon="4.86844">
        <ele>216</ele>
        <time>2010-02-06T17:50:06Z</time>
      </trkpt>
      <trkpt lat="45.32644" lon="4.8696">
        <ele>213</ele>
        <time>2010-02-06T17:50:38Z</time>
      </trkpt>
      <trkpt lat="45.32649" lon="4.87118">
        <ele>214</ele>
        <time>2010-02-06T17:51:23Z</time>
      </trkpt>
      <trkpt lat="45.32643" lon="4.87138">
        <ele>214</ele>
        <time>2010-02-06T17:51:29Z</time>
      </trkpt>
      <trkpt lat="45.32663" lon="4.87314">
        <ele>210</ele>
        <time>2010-02-06T17:52:19Z</time>
      </trkpt>
      <trkpt lat="45.32677" lon="4.87332">
        <ele>210</ele>
        <time>2010-02-06T17:52:27Z</time>
      </trkpt>
      <trkpt lat="45.32709" lon="4.87535">
        <ele>216</ele>
        <time>2010-02-06T17:53:25Z</time>
      </trkpt>
      <trkpt lat="45.32625" lon="4.8758">
        <ele>207</ele>
        <time>2010-02-06T17:54:01Z</time>
      </trkpt>
      <trkpt lat="45.3247" lon="4.87656">
        <ele>197</ele>
        <time>2010-02-06T17:55:07Z</time>
      </trkpt>
      <trkpt lat="45.32369" lon="4.87691">
        <ele>188</ele>
        <time>2010-02-06T17:55:48Z</time>
      </trkpt>
      <trkpt lat="45.32353" lon="4.87693">
        <ele>188</ele>
        <time>2010-02-06T17:55:55Z</time>
      </trkpt>
      <trkpt lat="45.32335" lon="4.87688">
        <ele>188</ele>
        <time>2010-02-06T17:56:02Z</time>
      </trkpt>
      <trkpt lat="45.32245" lon="4.87646">
        <ele>182</ele>
        <time>2010-02-06T17:56:40Z</time>
      </trkpt>
      <trkpt lat="45.32222" lon="4.87644">
        <ele>182</ele>
        <time>2010-02-06T17:56:49Z</time>
      </trkpt>
      <trkpt lat="45.322" lon="4.87649">
        <ele>181</ele>
        <time>2010-02-06T17:56:58Z</time>
      </trkpt>
      <trkpt lat="45.32157" lon="4.87671">
        <ele>181</ele>
        <time>2010-02-06T17:57:17Z</time>
      </trkpt>
      <trkpt lat="45.32127" lon="4.87709">
        <ele>179</ele>
        <time>2010-02-06T17:57:33Z</time>
      </trkpt>
      <trkpt lat="45.3212" lon="4.87729">
        <ele>183</ele>
        <time>2010-02-06T17:57:39Z</time>
      </trkpt>
      <trkpt lat="45.32114" lon="4.87768">
        <ele>183</ele>
        <time>2010-02-06T17:57:50Z</time>
      </trkpt>
      <trkpt lat="45.32116" lon="4.87828">
        <ele>184</ele>
        <time>2010-02-06T17:58:07Z</time>
      </trkpt>
      <trkpt lat="45.32136" lon="4.87897">
        <ele>178</ele>
        <time>2010-02-06T17:58:28Z</time>
      </trkpt>
      <trkpt lat="45.32136" lon="4.87912">
        <ele>178</ele>
        <time>2010-02-06T17:58:32Z</time>
      </trkpt>
      <trkpt lat="45.3213" lon="4.87923">
        <ele>178</ele>
        <time>2010-02-06T17:58:36Z</time>
      </trkpt>
      <trkpt lat="45.32125" lon="4.87927">
        <ele>185</ele>
        <time>2010-02-06T17:58:38Z</time>
      </trkpt>
      <trkpt lat="45.32075" lon="4.87925">
        <ele>185</ele>
        <time>2010-02-06T17:58:59Z</time>
      </trkpt>
      <trkpt lat="45.32074" lon="4.87918">
        <ele>185</ele>
        <time>2010-02-06T17:59:01Z</time>
      </trkpt>
      <trkpt lat="45.32083" lon="4.87887">
        <ele>185</ele>
        <time>2010-02-06T17:59:10Z</time>
      </trkpt>
      <trkpt lat="45.32085" lon="4.87832">
        <ele>184</ele>
        <time>2010-02-06T17:59:25Z</time>
      </trkpt>
      <trkpt lat="45.32069" lon="4.87768">
        <ele>183</ele>
        <time>2010-02-06T17:59:45Z</time>
      </trkpt>
      <trkpt lat="45.32049" lon="4.87709">
        <ele>183</ele>
        <time>2010-02-06T18:00:03Z</time>
      </trkpt>
      <trkpt lat="45.32038" lon="4.8762">
        <ele>201</ele>
        <time>2010-02-06T18:00:28Z</time>
      </trkpt>
      <trkpt lat="45.32018" lon="4.87616">
        <ele>201</ele>
        <time>2010-02-06T18:00:37Z</time>
      </trkpt>
      <trkpt lat="45.31944" lon="4.87628">
        <ele>203</ele>
        <time>2010-02-06T18:01:06Z</time>
      </trkpt>
      <trkpt lat="45.31927" lon="4.87603">
        <ele>202</ele>
        <time>2010-02-06T18:01:16Z</time>
      </trkpt>
      <trkpt lat="45.31712" lon="4.87621">
        <ele>196</ele>
        <time>2010-02-06T18:02:42Z</time>
      </trkpt>
      <trkpt lat="45.31652" lon="4.87606">
        <ele>192</ele>
        <time>2010-02-06T18:03:07Z</time>
      </trkpt>
      <trkpt lat="45.31609" lon="4.87587">
        <ele>199</ele>
        <time>2010-02-06T18:03:25Z</time>
      </trkpt>
      <trkpt lat="45.3159" lon="4.87586">
        <ele>199</ele>
        <time>2010-02-06T18:03:32Z</time>
      </trkpt>
      <trkpt lat="45.3152" lon="4.87608">
        <ele>201</ele>
        <time>2010-02-06T18:04:01Z</time>
      </trkpt>
      <trkpt lat="45.31429" lon="4.87606">
        <ele>200</ele>
        <time>2010-02-06T18:04:37Z</time>
      </trkpt>
      <trkpt lat="45.31388" lon="4.87598">
        <ele>200</ele>
        <time>2010-02-06T18:04:54Z</time>
      </trkpt>
      <trkpt lat="45.3136" lon="4.87571">
        <ele>201</ele>
        <time>2010-02-06T18:05:08Z</time>
      </trkpt>
      <trkpt lat="45.31336" lon="4.87563">
        <ele>201</ele>
        <time>2010-02-06T18:05:17Z</time>
      </trkpt>
      <trkpt lat="45.31056" lon="4.87632">
        <ele>200</ele>
        <time>2010-02-06T18:07:11Z</time>
      </trkpt>
      <trkpt lat="45.31" lon="4.87664">
        <ele>196</ele>
        <time>2010-02-06T18:07:35Z</time>
      </trkpt>
      <trkpt lat="45.30955" lon="4.87708">
        <ele>183</ele>
        <time>2010-02-06T18:07:57Z</time>
      </trkpt>
      <trkpt lat="45.309" lon="4.87698">
        <ele>183</ele>
        <time>2010-02-06T18:08:19Z</time>
      </trkpt>
      <trkpt lat="45.3087" lon="4.87698">
        <ele>178</ele>
        <time>2010-02-06T18:08:31Z</time>
      </trkpt>
      <trkpt lat="45.30786" lon="4.8772">
        <ele>179</ele>
        <time>2010-02-06T18:09:06Z</time>
      </trkpt>
      <trkpt lat="45.30754" lon="4.87721">
        <ele>179</ele>
        <time>2010-02-06T18:09:18Z</time>
      </trkpt>
      <trkpt lat="45.30678" lon="4.87712">
        <ele>179</ele>
        <time>2010-02-06T18:09:49Z</time>
      </trkpt>
      <trkpt lat="45.30177" lon="4.87767">
        <ele>179</ele>
        <time>2010-02-06T18:13:10Z</time>
      </trkpt>
      <trkpt lat="45.29996" lon="4.87778">
        <ele>178</ele>
        <time>2010-02-06T18:14:23Z</time>
      </trkpt>
      <trkpt lat="45.29906" lon="4.8779">
        <ele>177</ele>
        <time>2010-02-06T18:14:59Z</time>
      </trkpt>
      <trkpt lat="45.29624" lon="4.87811">
        <ele>180</ele>
        <time>2010-02-06T18:16:52Z</time>
      </trkpt>
      <trkpt lat="45.29595" lon="4.87818">
        <ele>180</ele>
        <time>2010-02-06T18:17:04Z</time>
      </trkpt>
      <trkpt lat="45.2958" lon="4.87827">
        <ele>180</ele>
        <time>2010-02-06T18:17:10Z</time>
      </trkpt>
      <trkpt lat="45.29363" lon="4.87958">
        <ele>179</ele>
        <time>2010-02-06T18:18:45Z</time>
      </trkpt>
      <trkpt lat="45.29363" lon="4.8795">
        <ele>179</ele>
        <time>2010-02-06T18:18:47Z</time>
      </trkpt>
      <trkpt lat="45.29104" lon="4.8795">
        <ele>179</ele>
        <time>2010-02-06T18:20:30Z</time>
      </trkpt>
      <trkpt lat="45.28838" lon="4.8793">
        <ele>177</ele>
        <time>2010-02-06T18:22:17Z</time>
      </trkpt>
      <trkpt lat="45.28574" lon="4.87919">
        <ele>180</ele>
        <time>2010-02-06T18:24:03Z</time>
      </trkpt>
      <trkpt lat="45.28395" lon="4.87931">
        <ele>180</ele>
        <time>2010-02-06T18:25:15Z</time>
      </trkpt>
      <trkpt lat="45.28188" lon="4.87954">
        <ele>187</ele>
        <time>2010-02-06T18:26:38Z</time>
      </trkpt>
      <trkpt lat="45.28157" lon="4.88026">
        <ele>190</ele>
        <time>2010-02-06T18:27:01Z</time>
      </trkpt>
      <trkpt lat="45.28158" lon="4.88166">
        <ele>198</ele>
        <time>2010-02-06T18:27:41Z</time>
      </trkpt>
      <trkpt lat="45.28152" lon="4.88185">
        <ele>198</ele>
        <time>2010-02-06T18:27:47Z</time>
      </trkpt>
      <trkpt lat="45.28143" lon="4.88197">
        <ele>198</ele>
        <time>2010-02-06T18:27:52Z</time>
      </trkpt>
      <trkpt lat="45.28118" lon="4.88213">
        <ele>208</ele>
        <time>2010-02-06T18:28:03Z</time>
      </trkpt>
      <trkpt lat="45.28088" lon="4.88219">
        <ele>208</ele>
        <time>2010-02-06T18:28:15Z</time>
      </trkpt>
      <trkpt lat="45.28051" lon="4.88249">
        <ele>208</ele>
        <time>2010-02-06T18:28:32Z</time>
      </trkpt>
      <trkpt lat="45.27769" lon="4.88529">
        <ele>209</ele>
        <time>2010-02-06T18:30:50Z</time>
      </trkpt>
      <trkpt lat="45.27704" lon="4.88588">
        <ele>209</ele>
        <time>2010-02-06T18:31:20Z</time>
      </trkpt>
      <trkpt lat="45.27558" lon="4.88548">
        <ele>209</ele>
        <time>2010-02-06T18:32:20Z</time>
      </trkpt>
      <trkpt lat="45.27409" lon="4.88516">
        <ele>208</ele>
        <time>2010-02-06T18:33:20Z</time>
      </trkpt>
      <trkpt lat="45.27309" lon="4.88518">
        <ele>208</ele>
        <time>2010-02-06T18:34:00Z</time>
      </trkpt>
      <trkpt lat="45.27167" lon="4.88535">
        <ele>208</ele>
        <time>2010-02-06T18:34:57Z</time>
      </trkpt>
      <trkpt lat="45.27164" lon="4.88974">
        <ele>211</ele>
        <time>2010-02-06T18:37:01Z</time>
      </trkpt>
      <trkpt lat="45.27146" lon="4.89121">
        <ele>210</ele>
        <time>2010-02-06T18:37:43Z</time>
      </trkpt>
      <trkpt lat="45.27144" lon="4.89162">
        <ele>212</ele>
        <time>2010-02-06T18:37:55Z</time>
      </trkpt>
      <trkpt lat="45.2716" lon="4.89232">
        <ele>211</ele>
        <time>2010-02-06T18:38:15Z</time>
      </trkpt>
      <trkpt lat="45.27176" lon="4.89277">
        <ele>211</ele>
        <time>2010-02-06T18:38:30Z</time>
      </trkpt>
      <trkpt lat="45.27107" lon="4.89323">
        <ele>209</ele>
        <time>2010-02-06T18:39:00Z</time>
      </trkpt>
      <trkpt lat="45.27043" lon="4.89355">
        <ele>209</ele>
        <time>2010-02-06T18:39:27Z</time>
      </trkpt>
      <trkpt lat="45.26978" lon="4.89371">
        <ele>203</ele>
        <time>2010-02-06T18:39:54Z</time>
      </trkpt>
      <trkpt lat="45.26934" lon="4.89376">
        <ele>195</ele>
        <time>2010-02-06T18:40:11Z</time>
      </trkpt>
      <trkpt lat="45.26882" lon="4.89425">
        <ele>195</ele>
        <time>2010-02-06T18:40:36Z</time>
      </trkpt>
      <trkpt lat="45.26701" lon="4.89523">
        <ele>203</ele>
        <time>2010-02-06T18:41:54Z</time>
      </trkpt>
      <trkpt lat="45.26663" lon="4.89548">
        <ele>204</ele>
        <time>2010-02-06T18:42:11Z</time>
      </trkpt>
      <trkpt lat="45.26634" lon="4.89586">
        <ele>204</ele>
        <time>2010-02-06T18:42:26Z</time>
      </trkpt>
      <trkpt lat="45.26601" lon="4.89663">
        <ele>209</ele>
        <time>2010-02-06T18:42:52Z</time>
      </trkpt>
      <trkpt lat="45.2658" lon="4.89692">
        <ele>209</ele>
        <time>2010-02-06T18:43:04Z</time>
      </trkpt>
      <trkpt lat="45.2655" lon="4.89721">
        <ele>212</ele>
        <time>2010-02-06T18:43:18Z</time>
      </trkpt>
      <trkpt lat="45.26412" lon="4.89743">
        <ele>219</ele>
        <time>2010-02-06T18:44:14Z</time>
      </trkpt>
      <trkpt lat="45.26321" lon="4.89772">
        <ele>223</ele>
        <time>2010-02-06T18:44:51Z</time>
      </trkpt>
      <trkpt lat="45.26285" lon="4.8979">
        <ele>230</ele>
        <time>2010-02-06T18:45:06Z</time>
      </trkpt>
      <trkpt lat="45.26259" lon="4.89817">
        <ele>233</ele>
        <time>2010-02-06T18:45:19Z</time>
      </trkpt>
      <trkpt lat="45.26249" lon="4.89871">
        <ele>233</ele>
        <time>2010-02-06T18:45:35Z</time>
      </trkpt>
      <trkpt lat="45.26244" lon="4.89879">
        <ele>235</ele>
        <time>2010-02-06T18:45:38Z</time>
      </trkpt>
      <trkpt lat="45.2622" lon="4.89907">
        <ele>235</ele>
        <time>2010-02-06T18:45:50Z</time>
      </trkpt>
      <trkpt lat="45.26204" lon="4.89914">
        <ele>244</ele>
        <time>2010-02-06T18:45:57Z</time>
      </trkpt>
      <trkpt lat="45.26188" lon="4.89907">
        <ele>244</ele>
        <time>2010-02-06T18:46:04Z</time>
      </trkpt>
      <trkpt lat="45.26146" lon="4.89856">
        <ele>242</ele>
        <time>2010-02-06T18:46:26Z</time>
      </trkpt>
      <trkpt lat="45.26137" lon="4.89834">
        <ele>242</ele>
        <time>2010-02-06T18:46:33Z</time>
      </trkpt>
      <trkpt lat="45.26131" lon="4.89801">
        <ele>242</ele>
        <time>2010-02-06T18:46:43Z</time>
      </trkpt>
      <trkpt lat="45.26117" lon="4.89772">
        <ele>254</ele>
        <time>2010-02-06T18:46:53Z</time>
      </trkpt>
      <trkpt lat="45.26014" lon="4.89613">
        <ele>261</ele>
        <time>2010-02-06T18:47:53Z</time>
      </trkpt>
      <trkpt lat="45.25972" lon="4.89573">
        <ele>261</ele>
        <time>2010-02-06T18:48:14Z</time>
      </trkpt>
      <trkpt lat="45.25941" lon="4.89553">
        <ele>273</ele>
        <time>2010-02-06T18:48:27Z</time>
      </trkpt>
      <trkpt lat="45.25854" lon="4.89533">
        <ele>277</ele>
        <time>2010-02-06T18:49:03Z</time>
      </trkpt>
      <trkpt lat="45.25827" lon="4.8952">
        <ele>277</ele>
        <time>2010-02-06T18:49:14Z</time>
      </trkpt>
      <trkpt lat="45.25804" lon="4.89472">
        <ele>277</ele>
        <time>2010-02-06T18:49:30Z</time>
      </trkpt>
      <trkpt lat="45.25785" lon="4.89389">
        <ele>295</ele>
        <time>2010-02-06T18:49:55Z</time>
      </trkpt>
      <trkpt lat="45.25776" lon="4.89383">
        <ele>295</ele>
        <time>2010-02-06T18:49:59Z</time>
      </trkpt>
      <trkpt lat="45.25772" lon="4.89393">
        <ele>295</ele>
        <time>2010-02-06T18:50:02Z</time>
      </trkpt>
      <trkpt lat="45.25775" lon="4.89453">
        <ele>295</ele>
        <time>2010-02-06T18:50:19Z</time>
      </trkpt>
      <trkpt lat="45.25771" lon="4.89478">
        <ele>293</ele>
        <time>2010-02-06T18:50:26Z</time>
      </trkpt>
      <trkpt lat="45.25758" lon="4.895">
        <ele>293</ele>
        <time>2010-02-06T18:50:34Z</time>
      </trkpt>
      <trkpt lat="45.25721" lon="4.89541">
        <ele>293</ele>
        <time>2010-02-06T18:50:53Z</time>
      </trkpt>
      <trkpt lat="45.25716" lon="4.89552">
        <ele>299</ele>
        <time>2010-02-06T18:50:57Z</time>
      </trkpt>
      <trkpt lat="45.2572" lon="4.89567">
        <ele>299</ele>
        <time>2010-02-06T18:51:01Z</time>
      </trkpt>
      <trkpt lat="45.25763" lon="4.89594">
        <ele>299</ele>
        <time>2010-02-06T18:51:20Z</time>
      </trkpt>
      <trkpt lat="45.25773" lon="4.8961">
        <ele>299</ele>
        <time>2010-02-06T18:51:26Z</time>
      </trkpt>
      <trkpt lat="45.25776" lon="4.89631">
        <ele>306</ele>
        <time>2010-02-06T18:51:32Z</time>
      </trkpt>
      <trkpt lat="45.25769" lon="4.89662">
        <ele>306</ele>
        <time>2010-02-06T18:51:41Z</time>
      </trkpt>
      <trkpt lat="45.25755" lon="4.89704">
        <ele>306</ele>
        <time>2010-02-06T18:51:55Z</time>
      </trkpt>
      <trkpt lat="45.25715" lon="4.89795">
        <ele>301</ele>
        <time>2010-02-06T18:52:25Z</time>
      </trkpt>
      <trkpt lat="45.25645" lon="4.89943">
        <ele>320</ele>
        <time>2010-02-06T18:53:15Z</time>
      </trkpt>
      <trkpt lat="45.25629" lon="4.89989">
        <ele>311</ele>
        <time>2010-02-06T18:53:29Z</time>
      </trkpt>
      <trkpt lat="45.25618" lon="4.90042">
        <ele>338</ele>
        <time>2010-02-06T18:53:45Z</time>
      </trkpt>
      <trkpt lat="45.25614" lon="4.90132">
        <ele>339</ele>
        <time>2010-02-06T18:54:10Z</time>
      </trkpt>
      <trkpt lat="45.25649" lon="4.90335">
        <ele>333</ele>
        <time>2010-02-06T18:55:09Z</time>
      </trkpt>
      <trkpt lat="45.25667" lon="4.90495">
        <ele>344</ele>
        <time>2010-02-06T18:55:55Z</time>
      </trkpt>
      <trkpt lat="45.25665" lon="4.9052">
        <ele>344</ele>
        <time>2010-02-06T18:56:02Z</time>
      </trkpt>
      <trkpt lat="45.25654" lon="4.90516">
        <ele>344</ele>
        <time>2010-02-06T18:56:07Z</time>
      </trkpt>
      <trkpt lat="45.25617" lon="4.90457">
        <ele>352</ele>
        <time>2010-02-06T18:56:29Z</time>
      </trkpt>
      <trkpt lat="45.25604" lon="4.90446">
        <ele>352</ele>
        <time>2010-02-06T18:56:35Z</time>
      </trkpt>
      <trkpt lat="45.25566" lon="4.90429">
        <ele>352</ele>
        <time>2010-02-06T18:56:51Z</time>
      </trkpt>
      <trkpt lat="45.25544" lon="4.90424">
        <ele>352</ele>
        <time>2010-02-06T18:57:00Z</time>
      </trkpt>
      <trkpt lat="45.25488" lon="4.90424">
        <ele>354</ele>
        <time>2010-02-06T18:57:22Z</time>
      </trkpt>
      <trkpt lat="45.25444" lon="4.90466">
        <ele>360</ele>
        <time>2010-02-06T18:57:43Z</time>
      </trkpt>
      <trkpt lat="45.25422" lon="4.90471">
        <ele>360</ele>
        <time>2010-02-06T18:57:52Z</time>
      </trkpt>
      <trkpt lat="45.25409" lon="4.90465">
        <ele>360</ele>
        <time>2010-02-06T18:57:58Z</time>
      </trkpt>
      <trkpt lat="45.25343" lon="4.90405">
        <ele>355</ele>
        <time>2010-02-06T18:58:29Z</time>
      </trkpt>
      <trkpt lat="45.25316" lon="4.90403">
        <ele>355</ele>
        <time>2010-02-06T18:58:40Z</time>
      </trkpt>
      <trkpt lat="45.25304" lon="4.9042">
        <ele>355</ele>
        <time>2010-02-06T18:58:47Z</time>
      </trkpt>
      <trkpt lat="45.25302" lon="4.90449">
        <ele>355</ele>
        <time>2010-02-06T18:58:55Z</time>
      </trkpt>
      <trkpt lat="45.25307" lon="4.90468">
        <ele>352</ele>
        <time>2010-02-06T18:59:01Z</time>
      </trkpt>
      <trkpt lat="45.25333" lon="4.90505">
        <ele>352</ele>
        <time>2010-02-06T18:59:16Z</time>
      </trkpt>
      <trkpt lat="45.25369" lon="4.90576">
        <ele>341</ele>
        <time>2010-02-06T18:59:40Z</time>
      </trkpt>
      <trkpt lat="45.25395" lon="4.90644">
        <ele>349</ele>
        <time>2010-02-06T19:00:02Z</time>
      </trkpt>
      <trkpt lat="45.25421" lon="4.90738">
        <ele>338</ele>
        <time>2010-02-06T19:00:30Z</time>
      </trkpt>
      <trkpt lat="45.25425" lon="4.90787">
        <ele>338</ele>
        <time>2010-02-06T19:00:44Z</time>
      </trkpt>
      <trkpt lat="45.25422" lon="4.90842">
        <ele>336</ele>
        <time>2010-02-06T19:01:00Z</time>
      </trkpt>
      <trkpt lat="45.25409" lon="4.90876">
        <ele>334</ele>
        <time>2010-02-06T19:01:11Z</time>
      </trkpt>
      <trkpt lat="45.25383" lon="4.90926">
        <ele>334</ele>
        <time>2010-02-06T19:01:28Z</time>
      </trkpt>
      <trkpt lat="45.25376" lon="4.90959">
        <ele>327</ele>
        <time>2010-02-06T19:01:38Z</time>
      </trkpt>
      <trkpt lat="45.25379" lon="4.90982">
        <ele>327</ele>
        <time>2010-02-06T19:01:45Z</time>
      </trkpt>
      <trkpt lat="45.254" lon="4.91028">
        <ele>327</ele>
        <time>2010-02-06T19:02:00Z</time>
      </trkpt>
      <trkpt lat="45.2544" lon="4.91075">
        <ele>315</ele>
        <time>2010-02-06T19:02:21Z</time>
      </trkpt>
      <trkpt lat="45.25471" lon="4.911">
        <ele>328</ele>
        <time>2010-02-06T19:02:35Z</time>
      </trkpt>
      <trkpt lat="45.25496" lon="4.91136">
        <ele>314</ele>
        <time>2010-02-06T19:02:49Z</time>
      </trkpt>
      <trkpt lat="45.25508" lon="4.91171">
        <ele>314</ele>
        <time>2010-02-06T19:03:00Z</time>
      </trkpt>
      <trkpt lat="45.25512" lon="4.91229">
        <ele>311</ele>
        <time>2010-02-06T19:03:17Z</time>
      </trkpt>
      <trkpt lat="45.2551" lon="4.91239">
        <ele>311</ele>
        <time>2010-02-06T19:03:20Z</time>
      </trkpt>
      <trkpt lat="45.25501" lon="4.91247">
        <ele>311</ele>
        <time>2010-02-06T19:03:24Z</time>
      </trkpt>
      <trkpt lat="45.25479" lon="4.91242">
        <ele>311</ele>
        <time>2010-02-06T19:03:33Z</time>
      </trkpt>
      <trkpt lat="45.25436" lon="4.91221">
        <ele>302</ele>
        <time>2010-02-06T19:03:51Z</time>
      </trkpt>
      <trkpt lat="45.254" lon="4.91223">
        <ele>302</ele>
        <time>2010-02-06T19:04:05Z</time>
      </trkpt>
      <trkpt lat="45.25331" lon="4.91275">
        <ele>282</ele>
        <time>2010-02-06T19:04:37Z</time>
      </trkpt>
      <trkpt lat="45.25301" lon="4.91314">
        <ele>295</ele>
        <time>2010-02-06T19:04:53Z</time>
      </trkpt>
      <trkpt lat="45.2526" lon="4.91345">
        <ele>266</ele>
        <time>2010-02-06T19:05:12Z</time>
      </trkpt>
      <trkpt lat="45.25253" lon="4.91354">
        <ele>266</ele>
        <time>2010-02-06T19:05:15Z</time>
      </trkpt>
      <trkpt lat="45.25243" lon="4.91381">
        <ele>271</ele>
        <time>2010-02-06T19:05:24Z</time>
      </trkpt>
      <trkpt lat="45.25243" lon="4.91392">
        <ele>271</ele>
        <time>2010-02-06T19:05:27Z</time>
      </trkpt>
      <trkpt lat="45.25254" lon="4.91426">
        <ele>271</ele>
        <time>2010-02-06T19:05:38Z</time>
      </trkpt>
      <trkpt lat="45.25295" lon="4.91498">
        <ele>289</ele>
        <time>2010-02-06T19:06:04Z</time>
      </trkpt>
      <trkpt lat="45.25305" lon="4.91533">
        <ele>289</ele>
        <time>2010-02-06T19:06:14Z</time>
      </trkpt>
      <trkpt lat="45.25304" lon="4.91564">
        <ele>280</ele>
        <time>2010-02-06T19:06:23Z</time>
      </trkpt>
      <trkpt lat="45.25291" lon="4.91615">
        <ele>250</ele>
        <time>2010-02-06T19:06:38Z</time>
      </trkpt>
      <trkpt lat="45.25294" lon="4.91634">
        <ele>264</ele>
        <time>2010-02-06T19:06:44Z</time>
      </trkpt>
      <trkpt lat="45.25303" lon="4.91652">
        <ele>264</ele>
        <time>2010-02-06T19:06:50Z</time>
      </trkpt>
      <trkpt lat="45.25341" lon="4.91696">
        <ele>264</ele>
        <time>2010-02-06T19:07:10Z</time>
      </trkpt>
      <trkpt lat="45.25367" lon="4.91734">
        <ele>245</ele>
        <time>2010-02-06T19:07:25Z</time>
      </trkpt>
      <trkpt lat="45.25388" lon="4.9179">
        <ele>263</ele>
        <time>2010-02-06T19:07:43Z</time>
      </trkpt>
      <trkpt lat="45.25397" lon="4.91843">
        <ele>259</ele>
        <time>2010-02-06T19:07:58Z</time>
      </trkpt>
      <trkpt lat="45.25403" lon="4.91953">
        <ele>257</ele>
        <time>2010-02-06T19:08:29Z</time>
      </trkpt>
      <trkpt lat="45.25399" lon="4.91991">
        <ele>252</ele>
        <time>2010-02-06T19:08:40Z</time>
      </trkpt>
      <trkpt lat="45.2538" lon="4.92026">
        <ele>252</ele>
        <time>2010-02-06T19:08:52Z</time>
      </trkpt>
      <trkpt lat="45.25326" lon="4.92068">
        <ele>243</ele>
        <time>2010-02-06T19:09:17Z</time>
      </trkpt>
      <trkpt lat="45.25143" lon="4.92203">
        <ele>250</ele>
        <time>2010-02-06T19:10:39Z</time>
      </trkpt>
      <trkpt lat="45.25116" lon="4.92213">
        <ele>252</ele>
        <time>2010-02-06T19:10:51Z</time>
      </trkpt>
      <trkpt lat="45.25109" lon="4.92151">
        <ele>250</ele>
        <time>2010-02-06T19:11:08Z</time>
      </trkpt>
      <trkpt lat="45.25099" lon="4.92108">
        <ele>247</ele>
        <time>2010-02-06T19:11:21Z</time>
      </trkpt>
      <trkpt lat="45.25043" lon="4.92024">
        <ele>245</ele>
        <time>2010-02-06T19:11:54Z</time>
      </trkpt>
      <trkpt lat="45.2503" lon="4.91988">
        <ele>249</ele>
        <time>2010-02-06T19:12:05Z</time>
      </trkpt>
      <trkpt lat="45.24983" lon="4.9181">
        <ele>245</ele>
        <time>2010-02-06T19:12:59Z</time>
      </trkpt>
      <trkpt lat="45.24913" lon="4.91626">
        <ele>247</ele>
        <time>2010-02-06T19:13:58Z</time>
      </trkpt>
      <trkpt lat="45.24888" lon="4.91532">
        <ele>241</ele>
        <time>2010-02-06T19:14:26Z</time>
      </trkpt>
      <trkpt lat="45.24743" lon="4.90671">
        <ele>232</ele>
        <time>2010-02-06T19:18:35Z</time>
      </trkpt>
      <trkpt lat="45.24731" lon="4.90629">
        <ele>232</ele>
        <time>2010-02-06T19:18:48Z</time>
      </trkpt>
      <trkpt lat="45.24689" lon="4.90565">
        <ele>232</ele>
        <time>2010-02-06T19:19:13Z</time>
      </trkpt>
      <trkpt lat="45.24405" lon="4.90176">
        <ele>221</ele>
        <time>2010-02-06T19:21:51Z</time>
      </trkpt>
      <trkpt lat="45.24358" lon="4.90081">
        <ele>222</ele>
        <time>2010-02-06T19:22:24Z</time>
      </trkpt>
      <trkpt lat="45.24339" lon="4.90023">
        <ele>220</ele>
        <time>2010-02-06T19:22:42Z</time>
      </trkpt>
      <trkpt lat="45.24325" lon="4.89955">
        <ele>219</ele>
        <time>2010-02-06T19:23:02Z</time>
      </trkpt>
      <trkpt lat="45.24321" lon="4.89916">
        <ele>219</ele>
        <time>2010-02-06T19:23:13Z</time>
      </trkpt>
      <trkpt lat="45.2432" lon="4.89839">
        <ele>217</ele>
        <time>2010-02-06T19:23:34Z</time>
      </trkpt>
      <trkpt lat="45.24362" lon="4.89525">
        <ele>217</ele>
        <time>2010-02-06T19:25:04Z</time>
      </trkpt>
      <trkpt lat="45.24364" lon="4.89479">
        <ele>217</ele>
        <time>2010-02-06T19:25:17Z</time>
      </trkpt>
      <trkpt lat="45.24266" lon="4.89295">
        <ele>209</ele>
        <time>2010-02-06T19:26:22Z</time>
      </trkpt>
      <trkpt lat="45.24208" lon="4.89193">
        <ele>214</ele>
        <time>2010-02-06T19:26:59Z</time>
      </trkpt>
      <trkpt lat="45.24192" lon="4.89155">
        <ele>214</ele>
        <time>2010-02-06T19:27:12Z</time>
      </trkpt>
      <trkpt lat="45.24119" lon="4.88952">
        <ele>211</ele>
        <time>2010-02-06T19:28:16Z</time>
      </trkpt>
      <trkpt lat="45.24012" lon="4.8868">
        <ele>201</ele>
        <time>2010-02-06T19:29:44Z</time>
      </trkpt>
      <trkpt lat="45.23998" lon="4.88639">
        <ele>201</ele>
        <time>2010-02-06T19:29:57Z</time>
      </trkpt>
      <trkpt lat="45.23983" lon="4.88575">
        <ele>199</ele>
        <time>2010-02-06T19:30:16Z</time>
      </trkpt>
      <trkpt lat="45.23985" lon="4.88525">
        <ele>197</ele>
        <time>2010-02-06T19:30:30Z</time>
      </trkpt>
      <trkpt lat="45.23982" lon="4.88509">
        <ele>197</ele>
        <time>2010-02-06T19:30:35Z</time>
      </trkpt>
      <trkpt lat="45.23956" lon="4.88429">
        <ele>205</ele>
        <time>2010-02-06T19:30:59Z</time>
      </trkpt>
      <trkpt lat="45.2388" lon="4.88233">
        <ele>195</ele>
        <time>2010-02-06T19:32:02Z</time>
      </trkpt>
      <trkpt lat="45.23819" lon="4.88108">
        <ele>199</ele>
        <time>2010-02-06T19:32:45Z</time>
      </trkpt>
      <trkpt lat="45.2381" lon="4.88081">
        <ele>199</ele>
        <time>2010-02-06T19:32:54Z</time>
      </trkpt>
      <trkpt lat="45.23739" lon="4.87751">
        <ele>198</ele>
        <time>2010-02-06T19:34:31Z</time>
      </trkpt>
      <trkpt lat="45.23722" lon="4.87651">
        <ele>197</ele>
        <time>2010-02-06T19:35:00Z</time>
      </trkpt>
      <trkpt lat="45.23721" lon="4.87512">
        <ele>194</ele>
        <time>2010-02-06T19:35:39Z</time>
      </trkpt>
      <trkpt lat="45.23727" lon="4.87446">
        <ele>193</ele>
        <time>2010-02-06T19:35:58Z</time>
      </trkpt>
      <trkpt lat="45.23571" lon="4.87537">
        <ele>201</ele>
        <time>2010-02-06T19:37:05Z</time>
      </trkpt>
      <trkpt lat="45.23539" lon="4.87541">
        <ele>207</ele>
        <time>2010-02-06T19:37:18Z</time>
      </trkpt>
      <trkpt lat="45.23497" lon="4.87527">
        <ele>207</ele>
        <time>2010-02-06T19:37:36Z</time>
      </trkpt>
      <trkpt lat="45.23452" lon="4.87503">
        <ele>213</ele>
        <time>2010-02-06T19:37:55Z</time>
      </trkpt>
      <trkpt lat="45.23354" lon="4.87423">
        <ele>220</ele>
        <time>2010-02-06T19:38:40Z</time>
      </trkpt>
      <trkpt lat="45.23132" lon="4.87419">
        <ele>227</ele>
        <time>2010-02-06T19:40:09Z</time>
      </trkpt>
      <trkpt lat="45.23103" lon="4.87427">
        <ele>229</ele>
        <time>2010-02-06T19:40:21Z</time>
      </trkpt>
      <trkpt lat="45.23052" lon="4.87464">
        <ele>232</ele>
        <time>2010-02-06T19:40:44Z</time>
      </trkpt>
      <trkpt lat="45.23033" lon="4.87466">
        <ele>241</ele>
        <time>2010-02-06T19:40:51Z</time>
      </trkpt>
      <trkpt lat="45.2302" lon="4.87459">
        <ele>241</ele>
        <time>2010-02-06T19:40:57Z</time>
      </trkpt>
      <trkpt lat="45.22887" lon="4.87304">
        <ele>244</ele>
        <time>2010-02-06T19:42:06Z</time>
      </trkpt>
      <trkpt lat="45.22873" lon="4.87294">
        <ele>252</ele>
        <time>2010-02-06T19:42:12Z</time>
      </trkpt>
      <trkpt lat="45.22853" lon="4.87297">
        <ele>252</ele>
        <time>2010-02-06T19:42:20Z</time>
      </trkpt>
      <trkpt lat="45.22845" lon="4.87303">
        <ele>252</ele>
        <time>2010-02-06T19:42:24Z</time>
      </trkpt>
      <trkpt lat="45.2283" lon="4.87326">
        <ele>252</ele>
        <time>2010-02-06T19:42:33Z</time>
      </trkpt>
      <trkpt lat="45.22795" lon="4.87423">
        <ele>258</ele>
        <time>2010-02-06T19:43:03Z</time>
      </trkpt>
      <trkpt lat="45.22755" lon="4.87482">
        <ele>263</ele>
        <time>2010-02-06T19:43:26Z</time>
      </trkpt>
      <trkpt lat="45.22738" lon="4.87521">
        <ele>263</ele>
        <time>2010-02-06T19:43:39Z</time>
      </trkpt>
      <trkpt lat="45.22736" lon="4.87553">
        <ele>267</ele>
        <time>2010-02-06T19:43:48Z</time>
      </trkpt>
      <trkpt lat="45.22751" lon="4.87675">
        <ele>271</ele>
        <time>2010-02-06T19:44:23Z</time>
      </trkpt>
      <trkpt lat="45.2275" lon="4.877">
        <ele>271</ele>
        <time>2010-02-06T19:44:30Z</time>
      </trkpt>
      <trkpt lat="45.2274" lon="4.87741">
        <ele>278</ele>
        <time>2010-02-06T19:44:43Z</time>
      </trkpt>
      <trkpt lat="45.22714" lon="4.87779">
        <ele>278</ele>
        <time>2010-02-06T19:44:58Z</time>
      </trkpt>
      <trkpt lat="45.22691" lon="4.87835">
        <ele>279</ele>
        <time>2010-02-06T19:45:16Z</time>
      </trkpt>
      <trkpt lat="45.2267" lon="4.87869">
        <ele>279</ele>
        <time>2010-02-06T19:45:29Z</time>
      </trkpt>
      <trkpt lat="45.22661" lon="4.87878">
        <ele>286</ele>
        <time>2010-02-06T19:45:33Z</time>
      </trkpt>
      <trkpt lat="45.22616" lon="4.879">
        <ele>285</ele>
        <time>2010-02-06T19:45:52Z</time>
      </trkpt>
      <trkpt lat="45.22605" lon="4.87914">
        <ele>285</ele>
        <time>2010-02-06T19:45:58Z</time>
      </trkpt>
      <trkpt lat="45.22483" lon="4.88164">
        <ele>299</ele>
        <time>2010-02-06T19:47:24Z</time>
      </trkpt>
      <trkpt lat="45.22234" lon="4.88547">
        <ele>320</ele>
        <time>2010-02-06T19:49:51Z</time>
      </trkpt>
      <trkpt lat="45.22221" lon="4.88582">
        <ele>320</ele>
        <time>2010-02-06T19:50:02Z</time>
      </trkpt>
      <trkpt lat="45.22208" lon="4.88672">
        <ele>309</ele>
        <time>2010-02-06T19:50:28Z</time>
      </trkpt>
      <trkpt lat="45.22182" lon="4.8879">
        <ele>313</ele>
        <time>2010-02-06T19:51:03Z</time>
      </trkpt>
      <trkpt lat="45.22182" lon="4.88817">
        <ele>315</ele>
        <time>2010-02-06T19:51:10Z</time>
      </trkpt>
      <trkpt lat="45.2222" lon="4.88923">
        <ele>330</ele>
        <time>2010-02-06T19:51:44Z</time>
      </trkpt>
      <trkpt lat="45.22223" lon="4.8894">
        <ele>330</ele>
        <time>2010-02-06T19:51:49Z</time>
      </trkpt>
      <trkpt lat="45.2222" lon="4.89035">
        <ele>332</ele>
        <time>2010-02-06T19:52:15Z</time>
      </trkpt>
      <trkpt lat="45.2223" lon="4.89135">
        <ele>340</ele>
        <time>2010-02-06T19:52:44Z</time>
      </trkpt>
      <trkpt lat="45.22225" lon="4.89233">
        <ele>350</ele>
        <time>2010-02-06T19:53:12Z</time>
      </trkpt>
      <trkpt lat="45.2223" lon="4.89342">
        <ele>350</ele>
        <time>2010-02-06T19:53:42Z</time>
      </trkpt>
      <trkpt lat="45.22227" lon="4.89383">
        <ele>349</ele>
        <time>2010-02-06T19:53:54Z</time>
      </trkpt>
      <trkpt lat="45.22214" lon="4.89395">
        <ele>349</ele>
        <time>2010-02-06T19:54:00Z</time>
      </trkpt>
      <trkpt lat="45.22202" lon="4.89393">
        <ele>353</ele>
        <time>2010-02-06T19:54:05Z</time>
      </trkpt>
      <trkpt lat="45.22141" lon="4.89325">
        <ele>346</ele>
        <time>2010-02-06T19:54:36Z</time>
      </trkpt>
      <trkpt lat="45.2213" lon="4.89319">
        <ele>346</ele>
        <time>2010-02-06T19:54:41Z</time>
      </trkpt>
      <trkpt lat="45.22098" lon="4.89311">
        <ele>355</ele>
        <time>2010-02-06T19:54:54Z</time>
      </trkpt>
      <trkpt lat="45.22053" lon="4.89309">
        <ele>355</ele>
        <time>2010-02-06T19:55:12Z</time>
      </trkpt>
      <trkpt lat="45.22031" lon="4.89317">
        <ele>355</ele>
        <time>2010-02-06T19:55:21Z</time>
      </trkpt>
      <trkpt lat="45.21948" lon="4.89427">
        <ele>359</ele>
        <time>2010-02-06T19:56:06Z</time>
      </trkpt>
      <trkpt lat="45.21928" lon="4.89515">
        <ele>357</ele>
        <time>2010-02-06T19:56:33Z</time>
      </trkpt>
      <trkpt lat="45.21921" lon="4.89528">
        <ele>357</ele>
        <time>2010-02-06T19:56:37Z</time>
      </trkpt>
      <trkpt lat="45.21913" lon="4.89537">
        <ele>357</ele>
        <time>2010-02-06T19:56:41Z</time>
      </trkpt>
      <trkpt lat="45.21859" lon="4.89552">
        <ele>349</ele>
        <time>2010-02-06T19:57:03Z</time>
      </trkpt>
      <trkpt lat="45.21846" lon="4.89561">
        <ele>349</ele>
        <time>2010-02-06T19:57:09Z</time>
      </trkpt>
      <trkpt lat="45.21834" lon="4.89576">
        <ele>349</ele>
        <time>2010-02-06T19:57:15Z</time>
      </trkpt>
      <trkpt lat="45.21809" lon="4.89624">
        <ele>349</ele>
        <time>2010-02-06T19:57:32Z</time>
      </trkpt>
      <trkpt lat="45.21771" lon="4.89651">
        <ele>343</ele>
        <time>2010-02-06T19:57:49Z</time>
      </trkpt>
      <trkpt lat="45.21764" lon="4.89662">
        <ele>343</ele>
        <time>2010-02-06T19:57:53Z</time>
      </trkpt>
      <trkpt lat="45.21766" lon="4.89714">
        <ele>334</ele>
        <time>2010-02-06T19:58:08Z</time>
      </trkpt>
      <trkpt lat="45.21772" lon="4.89724">
        <ele>334</ele>
        <time>2010-02-06T19:58:12Z</time>
      </trkpt>
      <trkpt lat="45.21851" lon="4.89787">
        <ele>335</ele>
        <time>2010-02-06T19:58:48Z</time>
      </trkpt>
      <trkpt lat="45.21857" lon="4.89803">
        <ele>328</ele>
        <time>2010-02-06T19:58:53Z</time>
      </trkpt>
      <trkpt lat="45.21857" lon="4.89821">
        <ele>328</ele>
        <time>2010-02-06T19:58:58Z</time>
      </trkpt>
      <trkpt lat="45.21774" lon="4.90107">
        <ele>314</ele>
        <time>2010-02-06T20:00:26Z</time>
      </trkpt>
      <trkpt lat="45.21763" lon="4.9013">
        <ele>314</ele>
        <time>2010-02-06T20:00:33Z</time>
      </trkpt>
      <trkpt lat="45.21751" lon="4.90143">
        <ele>314</ele>
        <time>2010-02-06T20:00:39Z</time>
      </trkpt>
      <trkpt lat="45.21658" lon="4.9023">
        <ele>304</ele>
        <time>2010-02-06T20:01:24Z</time>
      </trkpt>
      <trkpt lat="45.21598" lon="4.90378">
        <ele>289</ele>
        <time>2010-02-06T20:02:12Z</time>
      </trkpt>
      <trkpt lat="45.21594" lon="4.90404">
        <ele>289</ele>
        <time>2010-02-06T20:02:20Z</time>
      </trkpt>
      <trkpt lat="45.21602" lon="4.90545">
        <ele>279</ele>
        <time>2010-02-06T20:03:00Z</time>
      </trkpt>
      <trkpt lat="45.21599" lon="4.90569">
        <ele>279</ele>
        <time>2010-02-06T20:03:06Z</time>
      </trkpt>
      <trkpt lat="45.21593" lon="4.90584">
        <ele>279</ele>
        <time>2010-02-06T20:03:11Z</time>
      </trkpt>
      <trkpt lat="45.21578" lon="4.90596">
        <ele>279</ele>
        <time>2010-02-06T20:03:18Z</time>
      </trkpt>
      <trkpt lat="45.21551" lon="4.90592">
        <ele>279</ele>
        <time>2010-02-06T20:03:29Z</time>
      </trkpt>
      <trkpt lat="45.21533" lon="4.90545">
        <ele>271</ele>
        <time>2010-02-06T20:03:44Z</time>
      </trkpt>
      <trkpt lat="45.21515" lon="4.90529">
        <ele>275</ele>
        <time>2010-02-06T20:03:53Z</time>
      </trkpt>
      <trkpt lat="45.21502" lon="4.90526">
        <ele>275</ele>
        <time>2010-02-06T20:03:58Z</time>
      </trkpt>
      <trkpt lat="45.2147" lon="4.90529">
        <ele>275</ele>
        <time>2010-02-06T20:04:11Z</time>
      </trkpt>
      <trkpt lat="45.21416" lon="4.90555">
        <ele>267</ele>
        <time>2010-02-06T20:04:34Z</time>
      </trkpt>
      <trkpt lat="45.21336" lon="4.90575">
        <ele>263</ele>
        <time>2010-02-06T20:05:06Z</time>
      </trkpt>
      <trkpt lat="45.21348" lon="4.90668">
        <ele>259</ele>
        <time>2010-02-06T20:05:33Z</time>
      </trkpt>
      <trkpt lat="45.21346" lon="4.90686">
        <ele>259</ele>
        <time>2010-02-06T20:05:38Z</time>
      </trkpt>
      <trkpt lat="45.2134" lon="4.90706">
        <ele>259</ele>
        <time>2010-02-06T20:05:44Z</time>
      </trkpt>
      <trkpt lat="45.21323" lon="4.90736">
        <ele>255</ele>
        <time>2010-02-06T20:05:55Z</time>
      </trkpt>
      <trkpt lat="45.213" lon="4.90756">
        <ele>255</ele>
        <time>2010-02-06T20:06:06Z</time>
      </trkpt>
      <trkpt lat="45.21064" lon="4.90956">
        <ele>242</ele>
        <time>2010-02-06T20:07:56Z</time>
      </trkpt>
      <trkpt lat="45.21032" lon="4.90974">
        <ele>251</ele>
        <time>2010-02-06T20:08:09Z</time>
      </trkpt>
      <trkpt lat="45.21004" lon="4.90975">
        <ele>251</ele>
        <time>2010-02-06T20:08:21Z</time>
      </trkpt>
      <trkpt lat="45.20891" lon="4.9096">
        <ele>251</ele>
        <time>2010-02-06T20:09:06Z</time>
      </trkpt>
      <trkpt lat="45.20773" lon="4.90964">
        <ele>254</ele>
        <time>2010-02-06T20:09:53Z</time>
      </trkpt>
      <trkpt lat="45.20716" lon="4.9095">
        <ele>248</ele>
        <time>2010-02-06T20:10:17Z</time>
      </trkpt>
      <trkpt lat="45.20577" lon="4.90896">
        <ele>258</ele>
        <time>2010-02-06T20:11:14Z</time>
      </trkpt>
      <trkpt lat="45.20563" lon="4.90898">
        <ele>258</ele>
        <time>2010-02-06T20:11:20Z</time>
      </trkpt>
      <trkpt lat="45.20534" lon="4.90922">
        <ele>254</ele>
        <time>2010-02-06T20:11:33Z</time>
      </trkpt>
      <trkpt lat="45.20512" lon="4.90932">
        <ele>254</ele>
        <time>2010-02-06T20:11:43Z</time>
      </trkpt>
      <trkpt lat="45.20469" lon="4.9093">
        <ele>254</ele>
        <time>2010-02-06T20:12:00Z</time>
      </trkpt>
      <trkpt lat="45.20436" lon="4.90917">
        <ele>250</ele>
        <time>2010-02-06T20:12:13Z</time>
      </trkpt>
      <trkpt lat="45.20409" lon="4.90882">
        <ele>250</ele>
        <time>2010-02-06T20:12:28Z</time>
      </trkpt>
      <trkpt lat="45.20364" lon="4.90793">
        <ele>247</ele>
        <time>2010-02-06T20:12:59Z</time>
      </trkpt>
      <trkpt lat="45.20344" lon="4.90755">
        <ele>249</ele>
        <time>2010-02-06T20:13:12Z</time>
      </trkpt>
      <trkpt lat="45.20224" lon="4.90572">
        <ele>247</ele>
        <time>2010-02-06T20:14:23Z</time>
      </trkpt>
      <trkpt lat="45.20108" lon="4.90523">
        <ele>242</ele>
        <time>2010-02-06T20:15:11Z</time>
      </trkpt>
      <trkpt lat="45.20079" lon="4.90516">
        <ele>242</ele>
        <time>2010-02-06T20:15:23Z</time>
      </trkpt>
      <trkpt lat="45.20054" lon="4.90522">
        <ele>242</ele>
        <time>2010-02-06T20:15:33Z</time>
      </trkpt>
      <trkpt lat="45.20001" lon="4.90566">
        <ele>239</ele>
        <time>2010-02-06T20:15:58Z</time>
      </trkpt>
      <trkpt lat="45.19956" lon="4.9059">
        <ele>234</ele>
        <time>2010-02-06T20:16:17Z</time>
      </trkpt>
      <trkpt lat="45.19928" lon="4.90615">
        <ele>234</ele>
        <time>2010-02-06T20:16:30Z</time>
      </trkpt>
      <trkpt lat="45.19911" lon="4.90638">
        <ele>234</ele>
        <time>2010-02-06T20:16:40Z</time>
      </trkpt>
      <trkpt lat="45.19896" lon="4.90644">
        <ele>234</ele>
        <time>2010-02-06T20:16:46Z</time>
      </trkpt>
      <trkpt lat="45.19885" lon="4.90644">
        <ele>234</ele>
        <time>2010-02-06T20:16:50Z</time>
      </trkpt>
      <trkpt lat="45.19872" lon="4.90636">
        <ele>230</ele>
        <time>2010-02-06T20:16:56Z</time>
      </trkpt>
      <trkpt lat="45.19826" lon="4.90556">
        <ele>226</ele>
        <time>2010-02-06T20:17:25Z</time>
      </trkpt>
      <trkpt lat="45.19815" lon="4.90546">
        <ele>226</ele>
        <time>2010-02-06T20:17:30Z</time>
      </trkpt>
      <trkpt lat="45.19746" lon="4.90538">
        <ele>216</ele>
        <time>2010-02-06T20:17:58Z</time>
      </trkpt>
      <trkpt lat="45.19722" lon="4.90552">
        <ele>212</ele>
        <time>2010-02-06T20:18:08Z</time>
      </trkpt>
      <trkpt lat="45.19666" lon="4.9066">
        <ele>203</ele>
        <time>2010-02-06T20:18:46Z</time>
      </trkpt>
      <trkpt lat="45.19657" lon="4.90654">
        <ele>203</ele>
        <time>2010-02-06T20:18:50Z</time>
      </trkpt>
      <trkpt lat="45.19645" lon="4.9066">
        <ele>203</ele>
        <time>2010-02-06T20:18:55Z</time>
      </trkpt>
      <trkpt lat="45.1964" lon="4.9068">
        <ele>203</ele>
        <time>2010-02-06T20:19:01Z</time>
      </trkpt>
      <trkpt lat="45.19646" lon="4.90696">
        <ele>203</ele>
        <time>2010-02-06T20:19:06Z</time>
      </trkpt>
      <trkpt lat="45.19554" lon="4.90858">
        <ele>200</ele>
        <time>2010-02-06T20:20:05Z</time>
      </trkpt>
      <trkpt lat="45.19502" lon="4.90949">
        <ele>198</ele>
        <time>2010-02-06T20:20:38Z</time>
      </trkpt>
      <trkpt lat="45.19489" lon="4.90998">
        <ele>199</ele>
        <time>2010-02-06T20:20:53Z</time>
      </trkpt>
      <trkpt lat="45.19482" lon="4.91231">
        <ele>203</ele>
        <time>2010-02-06T20:21:59Z</time>
      </trkpt>
      <trkpt lat="45.19471" lon="4.91321">
        <ele>203</ele>
        <time>2010-02-06T20:22:25Z</time>
      </trkpt>
      <trkpt lat="45.19445" lon="4.91455">
        <ele>211</ele>
        <time>2010-02-06T20:23:04Z</time>
      </trkpt>
      <trkpt lat="45.19465" lon="4.91511">
        <ele>209</ele>
        <time>2010-02-06T20:23:21Z</time>
      </trkpt>
      <trkpt lat="45.19484" lon="4.91586">
        <ele>215</ele>
        <time>2010-02-06T20:23:44Z</time>
      </trkpt>
      <trkpt lat="45.19503" lon="4.91686">
        <ele>216</ele>
        <time>2010-02-06T20:24:13Z</time>
      </trkpt>
      <trkpt lat="45.19505" lon="4.91721">
        <ele>215</ele>
        <time>2010-02-06T20:24:23Z</time>
      </trkpt>
      <trkpt lat="45.19435" lon="4.91917">
        <ele>213</ele>
        <time>2010-02-06T20:25:25Z</time>
      </trkpt>
      <trkpt lat="45.19388" lon="4.91989">
        <ele>216</ele>
        <time>2010-02-06T20:25:53Z</time>
      </trkpt>
      <trkpt lat="45.19356" lon="4.9202">
        <ele>214</ele>
        <time>2010-02-06T20:26:08Z</time>
      </trkpt>
      <trkpt lat="45.18996" lon="4.92213">
        <ele>220</ele>
        <time>2010-02-06T20:28:42Z</time>
      </trkpt>
      <trkpt lat="45.18749" lon="4.92378">
        <ele>218</ele>
        <time>2010-02-06T20:30:32Z</time>
      </trkpt>
      <trkpt lat="45.18718" lon="4.92413">
        <ele>218</ele>
        <time>2010-02-06T20:30:47Z</time>
      </trkpt>
      <trkpt lat="45.18644" lon="4.92436">
        <ele>217</ele>
        <time>2010-02-06T20:31:18Z</time>
      </trkpt>
      <trkpt lat="45.18589" lon="4.92444">
        <ele>219</ele>
        <time>2010-02-06T20:31:40Z</time>
      </trkpt>
      <trkpt lat="45.18453" lon="4.92437">
        <ele>217</ele>
        <time>2010-02-06T20:32:34Z</time>
      </trkpt>
      <trkpt lat="45.18367" lon="4.92427">
        <ele>217</ele>
        <time>2010-02-06T20:33:09Z</time>
      </trkpt>
      <trkpt lat="45.18315" lon="4.92412">
        <ele>217</ele>
        <time>2010-02-06T20:33:30Z</time>
      </trkpt>
      <trkpt lat="45.1827" lon="4.9239">
        <ele>214</ele>
        <time>2010-02-06T20:33:49Z</time>
      </trkpt>
      <trkpt lat="45.18273" lon="4.92465">
        <ele>212</ele>
        <time>2010-02-06T20:34:10Z</time>
      </trkpt>
      <trkpt lat="45.18268" lon="4.92484">
        <ele>212</ele>
        <time>2010-02-06T20:34:16Z</time>
      </trkpt>
      <trkpt lat="45.18256" lon="4.925">
        <ele>212</ele>
        <time>2010-02-06T20:34:23Z</time>
      </trkpt>
      <trkpt lat="45.18159" lon="4.92448">
        <ele>216</ele>
        <time>2010-02-06T20:35:04Z</time>
      </trkpt>
      <trkpt lat="45.1815" lon="4.92434">
        <ele>216</ele>
        <time>2010-02-06T20:35:10Z</time>
      </trkpt>
      <trkpt lat="45.18149" lon="4.92421">
        <ele>216</ele>
        <time>2010-02-06T20:35:13Z</time>
      </trkpt>
      <trkpt lat="45.18061" lon="4.92473">
        <ele>211</ele>
        <time>2010-02-06T20:35:51Z</time>
      </trkpt>
      <trkpt lat="45.18002" lon="4.92498">
        <ele>211</ele>
        <time>2010-02-06T20:36:16Z</time>
      </trkpt>
      <trkpt lat="45.17977" lon="4.9251">
        <ele>211</ele>
        <time>2010-02-06T20:36:27Z</time>
      </trkpt>
      <trkpt lat="45.17959" lon="4.92536">
        <ele>211</ele>
        <time>2010-02-06T20:36:37Z</time>
      </trkpt>
      <trkpt lat="45.17933" lon="4.92556">
        <ele>212</ele>
        <time>2010-02-06T20:36:49Z</time>
      </trkpt>
      <trkpt lat="45.17842" lon="4.92595">
        <ele>218</ele>
        <time>2010-02-06T20:37:27Z</time>
      </trkpt>
      <trkpt lat="45.17813" lon="4.92602">
        <ele>218</ele>
        <time>2010-02-06T20:37:39Z</time>
      </trkpt>
      <trkpt lat="45.17786" lon="4.92648">
        <ele>223</ele>
        <time>2010-02-06T20:37:55Z</time>
      </trkpt>
      <trkpt lat="45.17781" lon="4.92683">
        <ele>223</ele>
        <time>2010-02-06T20:38:06Z</time>
      </trkpt>
      <trkpt lat="45.17724" lon="4.92649">
        <ele>223</ele>
        <time>2010-02-06T20:38:30Z</time>
      </trkpt>
      <trkpt lat="45.17694" lon="4.92674">
        <ele>220</ele>
        <time>2010-02-06T20:38:44Z</time>
      </trkpt>
      <trkpt lat="45.17673" lon="4.92704">
        <ele>220</ele>
        <time>2010-02-06T20:38:56Z</time>
      </trkpt>
      <trkpt lat="45.17611" lon="4.92757">
        <ele>221</ele>
        <time>2010-02-06T20:39:25Z</time>
      </trkpt>
      <trkpt lat="45.1748" lon="4.92857">
        <ele>221</ele>
        <time>2010-02-06T20:40:25Z</time>
      </trkpt>
      <trkpt lat="45.17366" lon="4.92937">
        <ele>220</ele>
        <time>2010-02-06T20:41:16Z</time>
      </trkpt>
      <trkpt lat="45.17314" lon="4.92957">
        <ele>220</ele>
        <time>2010-02-06T20:41:37Z</time>
      </trkpt>
      <trkpt lat="45.17121" lon="4.9301">
        <ele>227</ele>
        <time>2010-02-06T20:42:56Z</time>
      </trkpt>
      <trkpt lat="45.16927" lon="4.93057">
        <ele>230</ele>
        <time>2010-02-06T20:44:15Z</time>
      </trkpt>
      <trkpt lat="45.16723" lon="4.93086">
        <ele>236</ele>
        <time>2010-02-06T20:45:37Z</time>
      </trkpt>
      <trkpt lat="45.16608" lon="4.93114">
        <ele>246</ele>
        <time>2010-02-06T20:46:23Z</time>
      </trkpt>
      <trkpt lat="45.16557" lon="4.93119">
        <ele>246</ele>
        <time>2010-02-06T20:46:44Z</time>
      </trkpt>
      <trkpt lat="45.16485" lon="4.93114">
        <ele>248</ele>
        <time>2010-02-06T20:47:13Z</time>
      </trkpt>
      <trkpt lat="45.16437" lon="4.93119">
        <ele>245</ele>
        <time>2010-02-06T20:47:32Z</time>
      </trkpt>
      <trkpt lat="45.16292" lon="4.93175">
        <ele>247</ele>
        <time>2010-02-06T20:48:32Z</time>
      </trkpt>
      <trkpt lat="45.16268" lon="4.9318">
        <ele>246</ele>
        <time>2010-02-06T20:48:42Z</time>
      </trkpt>
      <trkpt lat="45.16182" lon="4.93181">
        <ele>248</ele>
        <time>2010-02-06T20:49:16Z</time>
      </trkpt>
      <trkpt lat="45.16024" lon="4.93194">
        <ele>244</ele>
        <time>2010-02-06T20:50:20Z</time>
      </trkpt>
      <trkpt lat="45.15702" lon="4.93168">
        <ele>253</ele>
        <time>2010-02-06T20:52:29Z</time>
      </trkpt>
      <trkpt lat="45.15653" lon="4.93152">
        <ele>253</ele>
        <time>2010-02-06T20:52:49Z</time>
      </trkpt>
      <trkpt lat="45.15426" lon="4.93031">
        <ele>264</ele>
        <time>2010-02-06T20:54:26Z</time>
      </trkpt>
      <trkpt lat="45.15396" lon="4.93025">
        <ele>264</ele>
        <time>2010-02-06T20:54:38Z</time>
      </trkpt>
      <trkpt lat="45.14901" lon="4.93114">
        <ele>251</ele>
        <time>2010-02-06T20:57:58Z</time>
      </trkpt>
      <trkpt lat="45.14801" lon="4.93161">
        <ele>253</ele>
        <time>2010-02-06T20:58:40Z</time>
      </trkpt>
      <trkpt lat="45.14688" lon="4.93231">
        <ele>254</ele>
        <time>2010-02-06T20:59:29Z</time>
      </trkpt>
      <trkpt lat="45.14641" lon="4.93269">
        <ele>254</ele>
        <time>2010-02-06T20:59:51Z</time>
      </trkpt>
      <trkpt lat="45.14317" lon="4.93626">
        <ele>259</ele>
        <time>2010-02-06T21:02:35Z</time>
      </trkpt>
      <trkpt lat="45.14219" lon="4.93712">
        <ele>263</ele>
        <time>2010-02-06T21:03:21Z</time>
      </trkpt>
      <trkpt lat="45.14189" lon="4.93744">
        <ele>267</ele>
        <time>2010-02-06T21:03:36Z</time>
      </trkpt>
      <trkpt lat="45.1418" lon="4.9375">
        <ele>267</ele>
        <time>2010-02-06T21:03:40Z</time>
      </trkpt>
      <trkpt lat="45.14172" lon="4.93749">
        <ele>267</ele>
        <time>2010-02-06T21:03:44Z</time>
      </trkpt>
      <trkpt lat="45.13979" lon="4.94188">
        <ele>286</ele>
        <time>2010-02-06T21:06:10Z</time>
      </trkpt>
      <trkpt lat="45.13945" lon="4.94238">
        <ele>287</ele>
        <time>2010-02-06T21:06:29Z</time>
      </trkpt>
      <trkpt lat="45.13868" lon="4.94328">
        <ele>283</ele>
        <time>2010-02-06T21:07:09Z</time>
      </trkpt>
      <trkpt lat="45.13851" lon="4.94355">
        <ele>283</ele>
        <time>2010-02-06T21:07:19Z</time>
      </trkpt>
      <trkpt lat="45.13742" lon="4.94634">
        <ele>289</ele>
        <time>2010-02-06T21:08:50Z</time>
      </trkpt>
      <trkpt lat="45.13726" lon="4.94659">
        <ele>289</ele>
        <time>2010-02-06T21:08:59Z</time>
      </trkpt>
      <trkpt lat="45.13614" lon="4.94784">
        <ele>286</ele>
        <time>2010-02-06T21:09:56Z</time>
      </trkpt>
      <trkpt lat="45.13531" lon="4.94815">
        <ele>288</ele>
        <time>2010-02-06T21:10:31Z</time>
      </trkpt>
      <trkpt lat="45.13422" lon="4.94822">
        <ele>283</ele>
        <time>2010-02-06T21:11:14Z</time>
      </trkpt>
      <trkpt lat="45.13351" lon="4.94854">
        <ele>281</ele>
        <time>2010-02-06T21:11:44Z</time>
      </trkpt>
      <trkpt lat="45.13321" lon="4.9488">
        <ele>280</ele>
        <time>2010-02-06T21:11:58Z</time>
      </trkpt>
      <trkpt lat="45.13312" lon="4.94899">
        <ele>280</ele>
        <time>2010-02-06T21:12:05Z</time>
      </trkpt>
      <trkpt lat="45.13308" lon="4.94921">
        <ele>280</ele>
        <time>2010-02-06T21:12:11Z</time>
      </trkpt>
      <trkpt lat="45.13307" lon="4.94986">
        <ele>278</ele>
        <time>2010-02-06T21:12:29Z</time>
      </trkpt>
      <trkpt lat="45.13286" lon="4.95036">
        <ele>275</ele>
        <time>2010-02-06T21:12:46Z</time>
      </trkpt>
      <trkpt lat="45.13267" lon="4.95058">
        <ele>268</ele>
        <time>2010-02-06T21:12:56Z</time>
      </trkpt>
      <trkpt lat="45.13209" lon="4.95094">
        <ele>268</ele>
        <time>2010-02-06T21:13:21Z</time>
      </trkpt>
      <trkpt lat="45.13184" lon="4.95124">
        <ele>269</ele>
        <time>2010-02-06T21:13:34Z</time>
      </trkpt>
      <trkpt lat="45.13168" lon="4.95174">
        <ele>265</ele>
        <time>2010-02-06T21:13:50Z</time>
      </trkpt>
      <trkpt lat="45.13142" lon="4.95328">
        <ele>262</ele>
        <time>2010-02-06T21:14:34Z</time>
      </trkpt>
      <trkpt lat="45.13137" lon="4.95347">
        <ele>262</ele>
        <time>2010-02-06T21:14:40Z</time>
      </trkpt>
      <trkpt lat="45.13124" lon="4.95369">
        <ele>261</ele>
        <time>2010-02-06T21:14:48Z</time>
      </trkpt>
      <trkpt lat="45.13096" lon="4.95398">
        <ele>262</ele>
        <time>2010-02-06T21:15:02Z</time>
      </trkpt>
      <trkpt lat="45.13063" lon="4.9542">
        <ele>262</ele>
        <time>2010-02-06T21:15:17Z</time>
      </trkpt>
      <trkpt lat="45.12837" lon="4.95536">
        <ele>265</ele>
        <time>2010-02-06T21:16:53Z</time>
      </trkpt>
      <trkpt lat="45.12706" lon="4.95674">
        <ele>267</ele>
        <time>2010-02-06T21:17:58Z</time>
      </trkpt>
      <trkpt lat="45.1269" lon="4.95687">
        <ele>267</ele>
        <time>2010-02-06T21:18:06Z</time>
      </trkpt>
      <trkpt lat="45.12635" lon="4.95716">
        <ele>265</ele>
        <time>2010-02-06T21:18:29Z</time>
      </trkpt>
      <trkpt lat="45.12614" lon="4.95734">
        <ele>258</ele>
        <time>2010-02-06T21:18:39Z</time>
      </trkpt>
      <trkpt lat="45.12562" lon="4.95827">
        <ele>256</ele>
        <time>2010-02-06T21:19:12Z</time>
      </trkpt>
      <trkpt lat="45.12423" lon="4.96147">
        <ele>246</ele>
        <time>2010-02-06T21:20:58Z</time>
      </trkpt>
      <trkpt lat="45.12375" lon="4.9624">
        <ele>245</ele>
        <time>2010-02-06T21:21:31Z</time>
      </trkpt>
      <trkpt lat="45.12343" lon="4.96277">
        <ele>240</ele>
        <time>2010-02-06T21:21:48Z</time>
      </trkpt>
      <trkpt lat="45.12273" lon="4.96327">
        <ele>234</ele>
        <time>2010-02-06T21:22:19Z</time>
      </trkpt>
      <trkpt lat="45.12071" lon="4.96418">
        <ele>219</ele>
        <time>2010-02-06T21:23:44Z</time>
      </trkpt>
      <trkpt lat="45.12019" lon="4.96476">
        <ele>211</ele>
        <time>2010-02-06T21:24:10Z</time>
      </trkpt>
      <trkpt lat="45.11981" lon="4.9649">
        <ele>211</ele>
        <time>2010-02-06T21:24:26Z</time>
      </trkpt>
      <trkpt lat="45.11946" lon="4.9651">
        <ele>207</ele>
        <time>2010-02-06T21:24:41Z</time>
      </trkpt>
      <trkpt lat="45.11917" lon="4.96549">
        <ele>203</ele>
        <time>2010-02-06T21:24:57Z</time>
      </trkpt>
      <trkpt lat="45.11826" lon="4.96741">
        <ele>197</ele>
        <time>2010-02-06T21:26:02Z</time>
      </trkpt>
      <trkpt lat="45.11751" lon="4.96826">
        <ele>195</ele>
        <time>2010-02-06T21:26:41Z</time>
      </trkpt>
      <trkpt lat="45.11742" lon="4.96817">
        <ele>195</ele>
        <time>2010-02-06T21:26:45Z</time>
      </trkpt>
      <trkpt lat="45.11728" lon="4.96823">
        <ele>195</ele>
        <time>2010-02-06T21:26:51Z</time>
      </trkpt>
      <trkpt lat="45.11655" lon="4.9669">
        <ele>194</ele>
        <time>2010-02-06T21:27:39Z</time>
      </trkpt>
      <trkpt lat="45.11583" lon="4.96501">
        <ele>195</ele>
        <time>2010-02-06T21:28:39Z</time>
      </trkpt>
    </trkseg>
  </trk>
</gpx>